CSC028 UNNT-BGGH
Flight info
| Callsign | CSC028 |
|---|---|
| Flight time | 7h 40m |
| Altitude | 38000 |
| Route | DIMID1J DIMID R484 SOREB W143 URAMI G715 LUNEP W255 TUMOK DCT 74N054E 76N036E/N0505F380 DCT LUNEV/N0503F400 DCT LUNEV/M085F400 DCT 76N006W 74N023W 71N036W 68N045W |
| Aircraft | A359/H-SDE2E3GHIJ3J4J5LM1ORWXY/LB1D1 |
Departure
| Time | 2026-04-22 23:05 |
|---|---|
| Airport | Novosibirsk Tolmachevo Airport (UNNT) |
Arrival
| Time | 2026-04-23 06:46 |
|---|---|
| Airport | Nuuk International Airport (BGGH) |
| Time | Latitude | Longitude | Altitude | Speed | Heading |
|---|---|---|---|---|---|
| 2026-04-22 22:45 | 55.01030 | 82.67049 | 353 ft | 0 kts | 170° |
| 2026-04-22 22:50 | 55.01020 | 82.67052 | 360 ft | 0 kts | 170° |
| 2026-04-22 22:50 | 55.01036 | 82.67050 | 353 ft | 4 kts | 184° |
| 2026-04-22 22:51 | 55.01060 | 82.67047 | 358 ft | 4 kts | 175° |
| 2026-04-22 22:51 | 55.01072 | 82.67044 | 361 ft | 3 kts | 206° |
| 2026-04-22 22:51 | 55.01089 | 82.67063 | 360 ft | 4 kts | 244° |
| 2026-04-22 22:51 | 55.01095 | 82.67103 | 363 ft | 4 kts | 265° |
| 2026-04-22 22:52 | 55.01096 | 82.67116 | 360 ft | 4 kts | 261° |
| 2026-04-22 22:52 | 55.01093 | 82.67082 | 360 ft | 0 kts | 261° |
| 2026-04-22 22:58 | 55.01091 | 82.67062 | 353 ft | 5 kts | 260° |
| 2026-04-22 22:58 | 55.01080 | 82.66961 | 360 ft | 10 kts | 264° |
| 2026-04-22 22:58 | 55.01096 | 82.66826 | 356 ft | 12 kts | 283° |
| 2026-04-22 22:59 | 55.01087 | 82.66666 | 355 ft | 14 kts | 250° |
| 2026-04-22 22:59 | 55.01048 | 82.66491 | 359 ft | 17 kts | 249° |
| 2026-04-22 22:59 | 55.00997 | 82.66300 | 354 ft | 18 kts | 232° |
| 2026-04-22 22:59 | 55.00953 | 82.66090 | 362 ft | 20 kts | 262° |
| 2026-04-22 23:00 | 55.00933 | 82.65847 | 356 ft | 21 kts | 262° |
| 2026-04-22 23:00 | 55.00911 | 82.65581 | 358 ft | 23 kts | 262° |
| 2026-04-22 23:00 | 55.00887 | 82.65296 | 357 ft | 24 kts | 262° |
| 2026-04-22 23:00 | 55.00953 | 82.65119 | 357 ft | 19 kts | 355° |
| 2026-04-22 23:01 | 55.01092 | 82.65084 | 358 ft | 21 kts | 351° |
| 2026-04-22 23:01 | 55.01225 | 82.65022 | 359 ft | 17 kts | 309° |
| 2026-04-22 23:01 | 55.01225 | 82.64816 | 366 ft | 18 kts | 262° |
| 2026-04-22 23:01 | 55.01208 | 82.64592 | 361 ft | 20 kts | 263° |
| 2026-04-22 23:02 | 55.01185 | 82.64348 | 362 ft | 21 kts | 260° |
| 2026-04-22 23:02 | 55.01159 | 82.64094 | 364 ft | 22 kts | 260° |
| 2026-04-22 23:02 | 55.01130 | 82.63822 | 362 ft | 24 kts | 259° |
| 2026-04-22 23:02 | 55.01100 | 82.63529 | 361 ft | 26 kts | 260° |
| 2026-04-22 23:03 | 55.01067 | 82.63209 | 363 ft | 28 kts | 260° |
| 2026-04-22 23:03 | 55.01034 | 82.62872 | 362 ft | 29 kts | 261° |
| 2026-04-22 23:03 | 55.01023 | 82.62525 | 360 ft | 28 kts | 270° |
| 2026-04-22 23:03 | 55.00972 | 82.62338 | 363 ft | 11 kts | 159° |
| 2026-04-22 23:04 | 55.00971 | 82.62385 | 365 ft | 2 kts | 37° |
| 2026-04-22 23:04 | 55.00991 | 82.62408 | 363 ft | 5 kts | 38° |
| 2026-04-22 23:04 | 55.01006 | 82.62461 | 367 ft | 0 kts | 81° |
| 2026-04-22 23:04 | 55.01010 | 82.62508 | 368 ft | 23 kts | 81° |
| 2026-04-22 23:05 | 55.01076 | 82.63225 | 360 ft | 94 kts | 81° |
| 2026-04-22 23:05 | 55.01210 | 82.64711 | 360 ft | 152 kts | 81° |
| 2026-04-22 23:05 | 55.01387 | 82.66688 | 819 ft | 165 kts | 81° |
| 2026-04-22 23:05 | 55.01575 | 82.68627 | 1640 ft | 163 kts | 88° |
| 2026-04-22 23:06 | 55.01757 | 82.70636 | 2181 ft | 176 kts | 89° |
| 2026-04-22 23:06 | 55.01946 | 82.72921 | 2406 ft | 205 kts | 88° |
| 2026-04-22 23:06 | 55.02168 | 82.75521 | 2730 ft | 227 kts | 86° |
| 2026-04-22 23:06 | 55.02424 | 82.78333 | 3312 ft | 239 kts | 85° |
| 2026-04-22 23:07 | 55.02685 | 82.81169 | 4089 ft | 242 kts | 85° |
| 2026-04-22 23:07 | 55.03008 | 82.84063 | 4860 ft | 247 kts | 76° |
| 2026-04-22 23:07 | 55.03890 | 82.86671 | 5581 ft | 258 kts | 45° |
| 2026-04-22 23:07 | 55.05489 | 82.88287 | 6079 ft | 276 kts | 19° |
| 2026-04-22 23:08 | 55.07365 | 82.89283 | 6743 ft | 285 kts | 15° |
| 2026-04-22 23:08 | 55.09289 | 82.90251 | 7564 ft | 290 kts | 15° |
| 2026-04-22 23:08 | 55.11261 | 82.91078 | 8422 ft | 293 kts | 5° |
| 2026-04-22 23:08 | 55.13279 | 82.90798 | 9324 ft | 291 kts | 341° |
| 2026-04-22 23:09 | 55.15195 | 82.89629 | 10214 ft | 292 kts | 335° |
| 2026-04-22 23:09 | 55.17105 | 82.88309 | 11007 ft | 298 kts | 335° |
| 2026-04-22 23:09 | 55.19043 | 82.86976 | 11870 ft | 301 kts | 336° |
| 2026-04-22 23:09 | 55.21005 | 82.85644 | 12755 ft | 304 kts | 336° |
| 2026-04-22 23:10 | 55.22986 | 82.84310 | 13620 ft | 307 kts | 336° |
| 2026-04-22 23:10 | 55.24966 | 82.82982 | 14375 ft | 309 kts | 336° |
| 2026-04-22 23:10 | 55.26948 | 82.81486 | 15121 ft | 310 kts | 328° |
| 2026-04-22 23:10 | 55.28733 | 82.79387 | 15912 ft | 309 kts | 320° |
| 2026-04-22 23:11 | 55.30419 | 82.77143 | 16678 ft | 312 kts | 319° |
| 2026-04-22 23:11 | 55.32151 | 82.74816 | 17470 ft | 314 kts | 319° |
| 2026-04-22 23:11 | 55.33907 | 82.72508 | 18222 ft | 318 kts | 321° |
| 2026-04-22 23:11 | 55.35907 | 82.70755 | 18829 ft | 329 kts | 339° |
| 2026-04-22 23:12 | 55.38244 | 82.70171 | 19180 ft | 350 kts | 354° |
| 2026-04-22 23:12 | 55.40740 | 82.70158 | 19425 ft | 368 kts | 356° |
| 2026-04-22 23:12 | 55.43363 | 82.70217 | 19679 ft | 384 kts | 356° |
| 2026-04-22 23:12 | 55.46090 | 82.70260 | 19932 ft | 400 kts | 356° |
| 2026-04-22 23:13 | 55.48922 | 82.70285 | 20279 ft | 412 kts | 356° |
| 2026-04-22 23:13 | 55.51812 | 82.70302 | 20850 ft | 418 kts | 356° |
| 2026-04-22 23:13 | 55.54736 | 82.70313 | 21495 ft | 422 kts | 356° |
| 2026-04-22 23:13 | 55.57685 | 82.70320 | 22146 ft | 426 kts | 356° |
| 2026-04-22 23:14 | 55.60669 | 82.70323 | 22783 ft | 430 kts | 356° |
| 2026-04-22 23:14 | 55.63638 | 82.70326 | 23412 ft | 434 kts | 356° |
| 2026-04-22 23:14 | 55.66669 | 82.70327 | 23955 ft | 438 kts | 356° |
| 2026-04-22 23:14 | 55.69724 | 82.70328 | 24530 ft | 440 kts | 356° |
| 2026-04-22 23:15 | 55.72802 | 82.70329 | 25107 ft | 443 kts | 355° |
| 2026-04-22 23:15 | 55.75900 | 82.70330 | 25664 ft | 446 kts | 355° |
| 2026-04-22 23:15 | 55.79019 | 82.70330 | 26211 ft | 449 kts | 355° |
| 2026-04-22 23:15 | 55.82154 | 82.70330 | 26758 ft | 452 kts | 355° |
| 2026-04-22 23:16 | 55.85315 | 82.70330 | 27306 ft | 455 kts | 355° |
| 2026-04-22 23:16 | 55.88501 | 82.70330 | 27850 ft | 458 kts | 355° |
| 2026-04-22 23:16 | 55.91695 | 82.70329 | 28386 ft | 461 kts | 355° |
| 2026-04-22 23:16 | 55.94918 | 82.70329 | 28892 ft | 464 kts | 355° |
| 2026-04-22 23:17 | 55.98121 | 82.70329 | 29377 ft | 467 kts | 354° |
| 2026-04-22 23:17 | 56.01380 | 82.70328 | 29844 ft | 470 kts | 354° |
| 2026-04-22 23:17 | 56.04652 | 82.70209 | 30249 ft | 470 kts | 351° |
| 2026-04-22 23:17 | 56.07877 | 82.69378 | 30666 ft | 465 kts | 341° |
| 2026-04-22 23:18 | 56.10971 | 82.67781 | 31072 ft | 462 kts | 336° |
| 2026-04-22 23:18 | 56.14010 | 82.65894 | 31460 ft | 462 kts | 334° |
| 2026-04-22 23:18 | 56.17022 | 82.63863 | 31836 ft | 463 kts | 333° |
| 2026-04-22 23:18 | 56.20042 | 82.61762 | 32217 ft | 465 kts | 333° |
| 2026-04-22 23:19 | 56.23051 | 82.59661 | 32723 ft | 463 kts | 333° |
| 2026-04-22 23:19 | 56.26039 | 82.57592 | 33305 ft | 459 kts | 333° |
| 2026-04-22 23:19 | 56.28990 | 82.55567 | 33834 ft | 457 kts | 333° |
| 2026-04-22 23:19 | 56.31962 | 82.53539 | 34228 ft | 456 kts | 334° |
| 2026-04-22 23:20 | 56.34928 | 82.51520 | 34531 ft | 457 kts | 334° |
| 2026-04-22 23:20 | 56.37901 | 82.49496 | 34835 ft | 457 kts | 334° |
| 2026-04-22 23:20 | 56.40885 | 82.47464 | 35147 ft | 458 kts | 334° |
| 2026-04-22 23:20 | 56.43866 | 82.45432 | 35448 ft | 458 kts | 334° |
| 2026-04-22 23:21 | 56.46853 | 82.43392 | 35731 ft | 459 kts | 334° |
| 2026-04-22 23:21 | 56.49842 | 82.41347 | 36015 ft | 459 kts | 334° |
| 2026-04-22 23:21 | 56.52834 | 82.39296 | 36302 ft | 460 kts | 334° |
| 2026-04-22 23:21 | 56.55826 | 82.37242 | 36587 ft | 460 kts | 334° |
| 2026-04-22 23:22 | 56.58827 | 82.35177 | 36865 ft | 461 kts | 334° |
| 2026-04-22 23:22 | 56.61826 | 82.33112 | 37132 ft | 461 kts | 334° |
| 2026-04-22 23:22 | 56.64825 | 82.31042 | 37401 ft | 462 kts | 334° |
| 2026-04-22 23:22 | 56.67829 | 82.28965 | 37684 ft | 462 kts | 334° |
| 2026-04-22 23:23 | 56.70836 | 82.26881 | 37809 ft | 464 kts | 334° |
| 2026-04-22 23:23 | 56.73851 | 82.24789 | 37822 ft | 463 kts | 334° |
| 2026-04-22 23:23 | 56.79877 | 82.20600 | 37821 ft | 463 kts | 334° |
| 2026-04-22 23:24 | 56.85900 | 82.16396 | 37824 ft | 463 kts | 334° |
| 2026-04-22 23:24 | 56.91884 | 82.12206 | 37825 ft | 463 kts | 334° |
| 2026-04-22 23:25 | 56.97905 | 82.07974 | 37825 ft | 463 kts | 334° |
| 2026-04-22 23:25 | 57.03669 | 82.02874 | 37824 ft | 458 kts | 327° |
| 2026-04-22 23:26 | 57.09238 | 81.97149 | 37823 ft | 458 kts | 326° |
| 2026-04-22 23:26 | 57.14768 | 81.91319 | 37827 ft | 458 kts | 326° |
| 2026-04-22 23:27 | 57.20300 | 81.85463 | 37831 ft | 458 kts | 326° |
| 2026-04-22 23:27 | 57.25807 | 81.79631 | 37831 ft | 458 kts | 326° |
| 2026-04-22 23:28 | 57.31339 | 81.73761 | 37833 ft | 459 kts | 326° |
| 2026-04-22 23:28 | 57.36875 | 81.67868 | 37834 ft | 459 kts | 325° |
| 2026-04-22 23:29 | 57.42413 | 81.61950 | 37834 ft | 459 kts | 325° |
| 2026-04-22 23:29 | 57.47953 | 81.56011 | 37833 ft | 460 kts | 325° |
| 2026-04-22 23:30 | 57.53484 | 81.50059 | 37832 ft | 460 kts | 325° |
| 2026-04-22 23:30 | 57.58084 | 81.45092 | 37833 ft | 460 kts | 325° |
| 2026-04-22 23:31 | 57.63633 | 81.39082 | 37832 ft | 461 kts | 325° |
| 2026-04-22 23:31 | 57.69176 | 81.33057 | 37831 ft | 461 kts | 325° |
| 2026-04-22 23:32 | 57.74735 | 81.26992 | 37828 ft | 462 kts | 325° |
| 2026-04-22 23:32 | 57.80283 | 81.20918 | 37830 ft | 462 kts | 325° |
| 2026-04-22 23:33 | 57.85838 | 81.14814 | 37832 ft | 462 kts | 325° |
| 2026-04-22 23:33 | 57.91357 | 81.08728 | 37828 ft | 463 kts | 325° |
| 2026-04-22 23:34 | 57.96918 | 81.02574 | 37826 ft | 463 kts | 325° |
| 2026-04-22 23:34 | 58.02477 | 80.96399 | 37828 ft | 464 kts | 325° |
| 2026-04-22 23:35 | 58.08032 | 80.90205 | 37834 ft | 464 kts | 325° |
| 2026-04-22 23:35 | 58.13590 | 80.83986 | 37832 ft | 464 kts | 325° |
| 2026-04-22 23:36 | 58.19152 | 80.77741 | 37823 ft | 464 kts | 324° |
| 2026-04-22 23:36 | 58.24671 | 80.71520 | 37825 ft | 465 kts | 324° |
| 2026-04-22 23:37 | 58.30224 | 80.65238 | 37817 ft | 465 kts | 324° |
| 2026-04-22 23:37 | 58.35784 | 80.58924 | 37825 ft | 465 kts | 324° |
| 2026-04-22 23:38 | 58.41343 | 80.52589 | 37821 ft | 466 kts | 324° |
| 2026-04-22 23:38 | 58.46908 | 80.46224 | 37818 ft | 466 kts | 324° |
| 2026-04-22 23:39 | 58.52469 | 80.39839 | 37820 ft | 466 kts | 324° |
| 2026-04-22 23:39 | 58.58034 | 80.33426 | 37820 ft | 466 kts | 324° |
| 2026-04-22 23:40 | 58.63583 | 80.27006 | 37820 ft | 466 kts | 324° |
| 2026-04-22 23:40 | 58.69129 | 80.20568 | 37818 ft | 466 kts | 324° |
| 2026-04-22 23:41 | 58.74639 | 80.14147 | 37812 ft | 465 kts | 324° |
| 2026-04-22 23:41 | 58.80174 | 80.07672 | 37810 ft | 465 kts | 324° |
| 2026-04-22 23:42 | 58.85699 | 80.01162 | 37804 ft | 465 kts | 324° |
| 2026-04-22 23:42 | 58.91199 | 79.94599 | 37804 ft | 464 kts | 324° |
| 2026-04-22 23:43 | 58.96693 | 79.88024 | 37803 ft | 464 kts | 324° |
| 2026-04-22 23:43 | 59.02184 | 79.81440 | 37805 ft | 464 kts | 323° |
| 2026-04-22 23:44 | 59.07667 | 79.74845 | 37800 ft | 463 kts | 323° |
| 2026-04-22 23:44 | 59.13118 | 79.68265 | 37801 ft | 463 kts | 323° |
| 2026-04-22 23:45 | 59.18591 | 79.61632 | 37798 ft | 463 kts | 323° |
| 2026-04-22 23:45 | 59.24060 | 79.54979 | 37794 ft | 463 kts | 323° |
| 2026-04-22 23:46 | 59.29520 | 79.48310 | 37781 ft | 463 kts | 323° |
| 2026-04-22 23:46 | 59.34979 | 79.41616 | 37781 ft | 463 kts | 323° |
| 2026-04-22 23:47 | 59.40451 | 79.34881 | 37785 ft | 464 kts | 323° |
| 2026-04-22 23:47 | 59.45913 | 79.28132 | 37789 ft | 464 kts | 323° |
| 2026-04-22 23:48 | 59.51375 | 79.21358 | 37783 ft | 464 kts | 323° |
| 2026-04-22 23:48 | 59.56838 | 79.14554 | 37789 ft | 464 kts | 323° |
| 2026-04-22 23:49 | 59.62263 | 79.07774 | 37784 ft | 464 kts | 323° |
| 2026-04-22 23:49 | 59.67724 | 79.00921 | 37783 ft | 465 kts | 323° |
| 2026-04-22 23:50 | 59.73182 | 78.94045 | 37781 ft | 465 kts | 322° |
| 2026-04-22 23:50 | 59.78643 | 78.87139 | 37777 ft | 465 kts | 322° |
| 2026-04-22 23:51 | 59.84106 | 78.80202 | 37772 ft | 466 kts | 322° |
| 2026-04-22 23:51 | 59.89571 | 78.73234 | 37772 ft | 466 kts | 322° |
| 2026-04-22 23:52 | 59.95026 | 78.66252 | 37775 ft | 466 kts | 322° |
| 2026-04-22 23:52 | 60.00481 | 78.59243 | 37768 ft | 467 kts | 322° |
| 2026-04-22 23:53 | 60.05909 | 78.52240 | 37765 ft | 467 kts | 322° |
| 2026-04-22 23:53 | 60.11368 | 78.45170 | 37762 ft | 468 kts | 322° |
| 2026-04-22 23:54 | 60.16834 | 78.38062 | 37757 ft | 468 kts | 322° |
| 2026-04-22 23:54 | 60.22300 | 78.30924 | 37757 ft | 469 kts | 322° |
| 2026-04-22 23:55 | 60.27777 | 78.23744 | 37757 ft | 469 kts | 322° |
| 2026-04-22 23:55 | 60.33243 | 78.16550 | 37752 ft | 470 kts | 322° |
| 2026-04-22 23:56 | 60.38719 | 78.09325 | 37752 ft | 470 kts | 322° |
| 2026-04-22 23:56 | 60.44197 | 78.02041 | 37748 ft | 471 kts | 322° |
| 2026-04-22 23:57 | 60.49672 | 77.94731 | 37747 ft | 471 kts | 322° |
| 2026-04-22 23:57 | 60.55143 | 77.87402 | 37740 ft | 471 kts | 322° |
| 2026-04-22 23:58 | 60.60584 | 77.80086 | 37739 ft | 472 kts | 322° |
| 2026-04-22 23:58 | 60.66065 | 77.72689 | 37740 ft | 472 kts | 321° |
| 2026-04-22 23:59 | 60.72008 | 77.66714 | 37738 ft | 483 kts | 338° |
| 2026-04-22 23:59 | 60.78679 | 77.64109 | 37732 ft | 491 kts | 348° |
| 2026-04-23 00:00 | 60.88906 | 77.61848 | 37738 ft | 493 kts | 349° |
| 2026-04-23 00:01 | 60.95694 | 77.60417 | 37739 ft | 493 kts | 349° |
| 2026-04-23 00:01 | 61.02529 | 77.58929 | 37737 ft | 493 kts | 349° |
| 2026-04-23 00:02 | 61.09363 | 77.57416 | 37742 ft | 493 kts | 349° |
| 2026-04-23 00:02 | 61.16197 | 77.55890 | 37741 ft | 494 kts | 349° |
| 2026-04-23 00:03 | 61.23031 | 77.54357 | 37739 ft | 494 kts | 349° |
| 2026-04-23 00:03 | 61.29870 | 77.52815 | 37744 ft | 494 kts | 349° |
| 2026-04-23 00:04 | 61.36712 | 77.51268 | 37744 ft | 494 kts | 349° |
| 2026-04-23 00:04 | 61.43510 | 77.49723 | 37740 ft | 495 kts | 349° |
| 2026-04-23 00:05 | 61.50352 | 77.48161 | 37748 ft | 495 kts | 349° |
| 2026-04-23 00:05 | 61.57218 | 77.46587 | 37749 ft | 495 kts | 349° |
| 2026-04-23 00:06 | 61.64062 | 77.45012 | 37741 ft | 495 kts | 349° |
| 2026-04-23 00:06 | 61.70917 | 77.43438 | 37741 ft | 495 kts | 349° |
| 2026-04-23 00:07 | 61.77774 | 77.41852 | 37745 ft | 495 kts | 349° |
| 2026-04-23 00:07 | 61.84624 | 77.40256 | 37752 ft | 495 kts | 349° |
| 2026-04-23 00:08 | 61.91430 | 77.38665 | 37754 ft | 495 kts | 349° |
| 2026-04-23 00:08 | 61.98293 | 77.37056 | 37751 ft | 495 kts | 349° |
| 2026-04-23 00:09 | 62.05142 | 77.35444 | 37744 ft | 496 kts | 349° |
| 2026-04-23 00:09 | 62.11946 | 77.33312 | 37753 ft | 490 kts | 341° |
| 2026-04-23 00:10 | 62.18111 | 77.27693 | 37753 ft | 478 kts | 323° |
| 2026-04-23 00:10 | 62.23273 | 77.18899 | 37750 ft | 473 kts | 315° |
| 2026-04-23 00:11 | 62.28138 | 77.09511 | 37750 ft | 473 kts | 314° |
| 2026-04-23 00:11 | 62.33004 | 76.99946 | 37743 ft | 474 kts | 314° |
| 2026-04-23 00:12 | 62.37886 | 76.90366 | 37741 ft | 474 kts | 314° |
| 2026-04-23 00:12 | 62.42775 | 76.80777 | 37744 ft | 475 kts | 314° |
| 2026-04-23 00:13 | 62.47659 | 76.71167 | 37738 ft | 475 kts | 314° |
| 2026-04-23 00:13 | 62.52541 | 76.61514 | 37741 ft | 475 kts | 314° |
| 2026-04-23 00:14 | 62.57420 | 76.51822 | 37739 ft | 476 kts | 314° |
| 2026-04-23 00:14 | 62.62295 | 76.42091 | 37738 ft | 476 kts | 314° |
| 2026-04-23 00:15 | 62.67140 | 76.32375 | 37742 ft | 477 kts | 313° |
| 2026-04-23 00:15 | 62.72015 | 76.22552 | 37739 ft | 477 kts | 313° |
| 2026-04-23 00:16 | 62.76886 | 76.12693 | 37737 ft | 478 kts | 313° |
| 2026-04-23 00:16 | 62.81754 | 76.02791 | 37736 ft | 478 kts | 313° |
| 2026-04-23 00:17 | 62.85803 | 75.94520 | 37735 ft | 479 kts | 313° |
| 2026-04-23 00:17 | 62.90675 | 75.84557 | 37732 ft | 479 kts | 313° |
| 2026-04-23 00:18 | 62.95542 | 75.74545 | 37732 ft | 480 kts | 313° |
| 2026-04-23 00:18 | 63.00409 | 75.64484 | 37731 ft | 480 kts | 313° |
| 2026-04-23 00:19 | 63.05272 | 75.54385 | 37730 ft | 480 kts | 313° |
| 2026-04-23 00:19 | 63.10131 | 75.44248 | 37729 ft | 481 kts | 313° |
| 2026-04-23 00:20 | 63.14958 | 75.34131 | 37732 ft | 481 kts | 313° |
| 2026-04-23 00:20 | 63.20351 | 75.25203 | 37728 ft | 489 kts | 328° |
| 2026-04-23 00:21 | 63.27512 | 75.17413 | 37724 ft | 492 kts | 331° |
| 2026-04-23 00:21 | 63.32695 | 75.12132 | 37724 ft | 492 kts | 332° |
| 2026-04-23 00:22 | 63.38923 | 75.05788 | 37720 ft | 492 kts | 332° |
| 2026-04-23 00:22 | 63.45149 | 74.99367 | 37719 ft | 492 kts | 331° |
| 2026-04-23 00:23 | 63.51360 | 74.92901 | 37717 ft | 492 kts | 331° |
| 2026-04-23 00:23 | 63.57533 | 74.86436 | 37714 ft | 492 kts | 331° |
| 2026-04-23 00:24 | 63.63746 | 74.79913 | 37711 ft | 492 kts | 331° |
| 2026-04-23 00:24 | 63.69956 | 74.73343 | 37709 ft | 493 kts | 331° |
| 2026-04-23 00:25 | 63.76162 | 74.66744 | 37695 ft | 493 kts | 331° |
| 2026-04-23 00:25 | 63.82328 | 74.60164 | 37704 ft | 493 kts | 331° |
| 2026-04-23 00:26 | 63.88527 | 74.53507 | 37701 ft | 493 kts | 331° |
| 2026-04-23 00:26 | 63.94723 | 74.46804 | 37701 ft | 493 kts | 331° |
| 2026-04-23 00:27 | 64.00916 | 74.40076 | 37698 ft | 493 kts | 331° |
| 2026-04-23 00:27 | 64.07105 | 74.33323 | 37693 ft | 493 kts | 331° |
| 2026-04-23 00:28 | 64.13296 | 74.26537 | 37692 ft | 493 kts | 331° |
| 2026-04-23 00:28 | 64.19488 | 74.19715 | 37694 ft | 493 kts | 331° |
| 2026-04-23 00:29 | 64.25635 | 74.12907 | 37692 ft | 494 kts | 331° |
| 2026-04-23 00:29 | 64.31824 | 74.06020 | 37690 ft | 494 kts | 331° |
| 2026-04-23 00:30 | 64.38014 | 73.99097 | 37686 ft | 494 kts | 331° |
| 2026-04-23 00:30 | 64.44206 | 73.92136 | 37684 ft | 495 kts | 331° |
| 2026-04-23 00:31 | 64.50405 | 73.85132 | 37680 ft | 495 kts | 331° |
| 2026-04-23 00:31 | 64.56592 | 73.78107 | 37676 ft | 495 kts | 331° |
| 2026-04-23 00:32 | 64.62775 | 73.71050 | 37671 ft | 495 kts | 331° |
| 2026-04-23 00:32 | 64.68959 | 73.63956 | 37669 ft | 495 kts | 331° |
| 2026-04-23 00:33 | 64.75147 | 73.56821 | 37661 ft | 496 kts | 330° |
| 2026-04-23 00:33 | 64.81336 | 73.49648 | 37668 ft | 496 kts | 330° |
| 2026-04-23 00:34 | 64.87524 | 73.42439 | 37662 ft | 496 kts | 330° |
| 2026-04-23 00:34 | 64.93668 | 73.35245 | 37658 ft | 497 kts | 330° |
| 2026-04-23 00:35 | 64.99867 | 73.27948 | 37658 ft | 497 kts | 330° |
| 2026-04-23 00:35 | 65.06061 | 73.20620 | 37655 ft | 497 kts | 330° |
| 2026-04-23 00:36 | 65.12250 | 73.13278 | 37637 ft | 497 kts | 330° |
| 2026-04-23 00:36 | 65.18450 | 73.05896 | 37640 ft | 498 kts | 330° |
| 2026-04-23 00:37 | 65.24596 | 72.98538 | 37643 ft | 498 kts | 330° |
| 2026-04-23 00:37 | 65.30789 | 72.91084 | 37644 ft | 498 kts | 330° |
| 2026-04-23 00:38 | 65.36979 | 72.83597 | 37643 ft | 498 kts | 330° |
| 2026-04-23 00:38 | 65.43162 | 72.76078 | 37639 ft | 498 kts | 330° |
| 2026-04-23 00:39 | 65.49194 | 72.67920 | 37641 ft | 496 kts | 322° |
| 2026-04-23 00:39 | 65.54796 | 72.58242 | 37635 ft | 495 kts | 321° |
| 2026-04-23 00:40 | 65.60338 | 72.48290 | 37636 ft | 496 kts | 321° |
| 2026-04-23 00:40 | 65.65855 | 72.38280 | 37628 ft | 496 kts | 321° |
| 2026-04-23 00:41 | 65.71374 | 72.28240 | 37625 ft | 496 kts | 321° |
| 2026-04-23 00:41 | 65.76900 | 72.18152 | 37622 ft | 496 kts | 321° |
| 2026-04-23 00:42 | 65.82380 | 72.08097 | 37620 ft | 496 kts | 321° |
| 2026-04-23 00:42 | 65.87893 | 71.97953 | 37621 ft | 497 kts | 321° |
| 2026-04-23 00:43 | 65.93408 | 71.87755 | 37616 ft | 497 kts | 321° |
| 2026-04-23 00:43 | 65.98918 | 71.77506 | 37613 ft | 497 kts | 321° |
| 2026-04-23 00:44 | 66.04425 | 71.67206 | 37609 ft | 497 kts | 321° |
| 2026-04-23 00:44 | 66.09925 | 71.56864 | 37606 ft | 497 kts | 321° |
| 2026-04-23 00:45 | 66.15422 | 71.46469 | 37608 ft | 497 kts | 321° |
| 2026-04-23 00:45 | 66.20915 | 71.36025 | 37604 ft | 498 kts | 321° |
| 2026-04-23 00:46 | 66.26396 | 71.25542 | 37602 ft | 498 kts | 321° |
| 2026-04-23 00:46 | 66.31880 | 71.14996 | 37600 ft | 498 kts | 320° |
| 2026-04-23 00:47 | 66.37320 | 71.04475 | 37598 ft | 498 kts | 320° |
| 2026-04-23 00:47 | 66.43090 | 70.94909 | 37601 ft | 501 kts | 333° |
| 2026-04-23 00:48 | 66.49772 | 70.89943 | 37598 ft | 504 kts | 352° |
| 2026-04-23 00:48 | 66.56775 | 70.88288 | 37599 ft | 506 kts | 354° |
| 2026-04-23 00:49 | 66.63815 | 70.87128 | 37599 ft | 507 kts | 355° |
| 2026-04-23 00:49 | 66.70859 | 70.85982 | 37604 ft | 507 kts | 355° |
| 2026-04-23 00:50 | 66.77901 | 70.84765 | 37609 ft | 507 kts | 354° |
| 2026-04-23 00:50 | 66.84885 | 70.83161 | 37610 ft | 506 kts | 348° |
| 2026-04-23 00:51 | 66.91563 | 70.77792 | 37611 ft | 502 kts | 336° |
| 2026-04-23 00:51 | 66.98011 | 70.70833 | 37612 ft | 503 kts | 335° |
| 2026-04-23 00:52 | 67.04415 | 70.63604 | 37610 ft | 503 kts | 334° |
| 2026-04-23 00:52 | 67.10818 | 70.56338 | 37615 ft | 503 kts | 334° |
| 2026-04-23 00:53 | 67.17221 | 70.49078 | 37615 ft | 503 kts | 334° |
| 2026-04-23 00:53 | 67.23618 | 70.41802 | 37616 ft | 503 kts | 334° |
| 2026-04-23 00:54 | 67.29988 | 70.34523 | 37616 ft | 503 kts | 334° |
| 2026-04-23 00:54 | 67.36381 | 70.27171 | 37617 ft | 502 kts | 334° |
| 2026-04-23 00:55 | 67.42775 | 70.19774 | 37620 ft | 502 kts | 334° |
| 2026-04-23 00:55 | 67.49157 | 70.12344 | 37622 ft | 502 kts | 334° |
| 2026-04-23 00:56 | 67.55548 | 70.04994 | 37623 ft | 503 kts | 338° |
| 2026-04-23 00:56 | 67.62346 | 70.00562 | 37625 ft | 504 kts | 348° |
| 2026-04-23 00:57 | 67.69230 | 69.97532 | 37630 ft | 505 kts | 350° |
| 2026-04-23 00:57 | 67.76173 | 69.94700 | 37630 ft | 505 kts | 350° |
| 2026-04-23 00:58 | 67.83119 | 69.91851 | 37632 ft | 504 kts | 350° |
| 2026-04-23 00:58 | 67.90038 | 69.88957 | 37633 ft | 504 kts | 350° |
| 2026-04-23 00:59 | 67.96971 | 69.86025 | 37642 ft | 503 kts | 350° |
| 2026-04-23 00:59 | 68.03899 | 69.83073 | 37643 ft | 503 kts | 350° |
| 2026-04-23 01:00 | 68.10810 | 69.80116 | 37645 ft | 503 kts | 349° |
| 2026-04-23 01:00 | 68.17672 | 69.77158 | 37648 ft | 503 kts | 350° |
| 2026-04-23 01:01 | 68.24585 | 69.74158 | 37646 ft | 503 kts | 350° |
| 2026-04-23 01:01 | 68.31486 | 69.71143 | 37653 ft | 502 kts | 350° |
| 2026-04-23 01:02 | 68.38396 | 69.68111 | 37651 ft | 502 kts | 350° |
| 2026-04-23 01:02 | 68.45299 | 69.65058 | 37660 ft | 502 kts | 349° |
| 2026-04-23 01:03 | 68.51030 | 69.62515 | 37667 ft | 502 kts | 349° |
| 2026-04-23 01:03 | 68.57934 | 69.59439 | 37664 ft | 502 kts | 349° |
| 2026-04-23 01:04 | 68.64839 | 69.56332 | 37664 ft | 502 kts | 349° |
| 2026-04-23 01:04 | 68.75143 | 69.51650 | 37668 ft | 502 kts | 349° |
| 2026-04-23 01:05 | 68.82041 | 69.48502 | 37670 ft | 502 kts | 349° |
| 2026-04-23 01:05 | 68.88938 | 69.45331 | 37678 ft | 502 kts | 349° |
| 2026-04-23 01:06 | 68.95783 | 69.41547 | 37681 ft | 501 kts | 345° |
| 2026-04-23 01:06 | 69.02511 | 69.36573 | 37681 ft | 500 kts | 344° |
| 2026-04-23 01:07 | 69.09244 | 69.31549 | 37684 ft | 500 kts | 344° |
| 2026-04-23 01:07 | 69.15941 | 69.26732 | 37683 ft | 499 kts | 345° |
| 2026-04-23 01:08 | 69.22681 | 69.21958 | 37688 ft | 499 kts | 345° |
| 2026-04-23 01:08 | 69.29415 | 69.17176 | 37691 ft | 499 kts | 345° |
| 2026-04-23 01:09 | 69.36149 | 69.12345 | 37693 ft | 499 kts | 345° |
| 2026-04-23 01:09 | 69.42880 | 69.07484 | 37702 ft | 499 kts | 345° |
| 2026-04-23 01:10 | 69.49562 | 69.02621 | 37701 ft | 499 kts | 345° |
| 2026-04-23 01:10 | 69.56282 | 68.97706 | 37700 ft | 499 kts | 345° |
| 2026-04-23 01:11 | 69.63008 | 68.92751 | 37703 ft | 499 kts | 345° |
| 2026-04-23 01:11 | 69.69737 | 68.87764 | 37709 ft | 499 kts | 345° |
| 2026-04-23 01:12 | 69.76463 | 68.82740 | 37711 ft | 499 kts | 345° |
| 2026-04-23 01:12 | 69.83182 | 68.77690 | 37712 ft | 499 kts | 345° |
| 2026-04-23 01:13 | 69.89897 | 68.72616 | 37713 ft | 499 kts | 345° |
| 2026-04-23 01:13 | 69.96614 | 68.67502 | 37718 ft | 498 kts | 345° |
| 2026-04-23 01:14 | 70.03324 | 68.62379 | 37722 ft | 498 kts | 345° |
| 2026-04-23 01:14 | 70.09993 | 68.57258 | 37720 ft | 498 kts | 345° |
| 2026-04-23 01:15 | 70.16690 | 68.52080 | 37720 ft | 498 kts | 345° |
| 2026-04-23 01:15 | 70.23382 | 68.46870 | 37721 ft | 497 kts | 345° |
| 2026-04-23 01:16 | 70.30068 | 68.41634 | 37726 ft | 497 kts | 344° |
| 2026-04-23 01:16 | 70.36754 | 68.36320 | 37722 ft | 497 kts | 343° |
| 2026-04-23 01:17 | 70.43068 | 68.28146 | 37726 ft | 495 kts | 331° |
| 2026-04-23 01:17 | 70.49119 | 68.18253 | 37729 ft | 495 kts | 330° |
| 2026-04-23 01:18 | 70.55118 | 68.08047 | 37729 ft | 495 kts | 329° |
| 2026-04-23 01:18 | 70.61100 | 67.97791 | 37730 ft | 495 kts | 329° |
| 2026-04-23 01:19 | 70.67082 | 67.87513 | 37728 ft | 495 kts | 329° |
| 2026-04-23 01:19 | 70.73033 | 67.77260 | 37727 ft | 495 kts | 329° |
| 2026-04-23 01:20 | 70.79010 | 67.66900 | 37725 ft | 495 kts | 329° |
| 2026-04-23 01:20 | 70.84990 | 67.56460 | 37728 ft | 494 kts | 329° |
| 2026-04-23 01:21 | 70.90953 | 67.45971 | 37728 ft | 494 kts | 329° |
| 2026-04-23 01:21 | 70.96906 | 67.35428 | 37728 ft | 494 kts | 329° |
| 2026-04-23 01:22 | 71.02852 | 67.24827 | 37726 ft | 494 kts | 329° |
| 2026-04-23 01:22 | 71.08770 | 67.14200 | 37727 ft | 494 kts | 329° |
| 2026-04-23 01:23 | 71.14703 | 67.03468 | 37728 ft | 494 kts | 329° |
| 2026-04-23 01:23 | 71.20535 | 66.92262 | 37729 ft | 493 kts | 322° |
| 2026-04-23 01:24 | 71.25481 | 66.77594 | 37728 ft | 491 kts | 312° |
| 2026-04-23 01:24 | 71.30064 | 66.61802 | 37724 ft | 492 kts | 310° |
| 2026-04-23 01:25 | 71.34584 | 66.45735 | 37722 ft | 492 kts | 310° |
| 2026-04-23 01:25 | 71.39058 | 66.29727 | 37723 ft | 492 kts | 310° |
| 2026-04-23 01:26 | 71.43559 | 66.13572 | 37718 ft | 492 kts | 310° |
| 2026-04-23 01:26 | 71.48048 | 65.97359 | 37713 ft | 492 kts | 310° |
| 2026-04-23 01:27 | 71.52528 | 65.81054 | 37714 ft | 492 kts | 310° |
| 2026-04-23 01:27 | 71.56998 | 65.64662 | 37713 ft | 492 kts | 310° |
| 2026-04-23 01:28 | 71.61446 | 65.48219 | 37707 ft | 492 kts | 310° |
| 2026-04-23 01:28 | 71.65859 | 65.31771 | 37705 ft | 492 kts | 309° |
| 2026-04-23 01:29 | 71.70286 | 65.15141 | 37704 ft | 492 kts | 309° |
| 2026-04-23 01:29 | 71.74698 | 64.98442 | 37702 ft | 492 kts | 309° |
| 2026-04-23 01:30 | 71.79101 | 64.81636 | 37696 ft | 492 kts | 309° |
| 2026-04-23 01:30 | 71.83487 | 64.64763 | 37698 ft | 492 kts | 309° |
| 2026-04-23 01:31 | 71.87850 | 64.47845 | 37692 ft | 492 kts | 309° |
| 2026-04-23 01:31 | 71.92200 | 64.30836 | 37693 ft | 492 kts | 309° |
| 2026-04-23 01:32 | 71.96514 | 64.13834 | 37692 ft | 493 kts | 308° |
| 2026-04-23 01:32 | 72.00838 | 63.96650 | 37695 ft | 493 kts | 308° |
| 2026-04-23 01:33 | 72.05154 | 63.79371 | 37689 ft | 493 kts | 308° |
| 2026-04-23 01:33 | 72.09451 | 63.62015 | 37669 ft | 493 kts | 308° |
| 2026-04-23 01:34 | 72.13742 | 63.44543 | 37669 ft | 493 kts | 308° |
| 2026-04-23 01:34 | 72.18015 | 63.27001 | 37665 ft | 494 kts | 308° |
| 2026-04-23 01:35 | 72.22237 | 63.09521 | 37669 ft | 494 kts | 308° |
| 2026-04-23 01:35 | 72.26487 | 62.91778 | 37668 ft | 494 kts | 307° |
| 2026-04-23 01:36 | 72.30714 | 62.73981 | 37662 ft | 494 kts | 307° |
| 2026-04-23 01:36 | 72.34930 | 62.56078 | 37670 ft | 494 kts | 307° |
| 2026-04-23 01:37 | 72.39133 | 62.38083 | 37668 ft | 495 kts | 307° |
| 2026-04-23 01:37 | 72.43294 | 62.20114 | 37657 ft | 495 kts | 307° |
| 2026-04-23 01:38 | 72.47463 | 62.01955 | 37656 ft | 495 kts | 307° |
| 2026-04-23 01:38 | 72.51617 | 61.83711 | 37652 ft | 495 kts | 306° |
| 2026-04-23 01:39 | 72.55758 | 61.65365 | 37658 ft | 495 kts | 306° |
| 2026-04-23 01:39 | 72.59879 | 61.46943 | 37649 ft | 495 kts | 306° |
| 2026-04-23 01:40 | 72.63982 | 61.28444 | 37648 ft | 495 kts | 306° |
| 2026-04-23 01:40 | 72.68075 | 61.09825 | 37646 ft | 496 kts | 306° |
| 2026-04-23 01:41 | 72.72155 | 60.91106 | 37647 ft | 496 kts | 306° |
| 2026-04-23 01:41 | 72.76186 | 60.72445 | 37642 ft | 496 kts | 305° |
| 2026-04-23 01:42 | 72.80233 | 60.53549 | 37643 ft | 496 kts | 305° |
| 2026-04-23 01:42 | 72.84269 | 60.34533 | 37639 ft | 496 kts | 305° |
| 2026-04-23 01:43 | 72.88276 | 60.15477 | 37635 ft | 497 kts | 304° |
| 2026-04-23 01:43 | 72.92269 | 59.96320 | 37630 ft | 497 kts | 304° |
| 2026-04-23 01:44 | 72.96244 | 59.77073 | 37630 ft | 497 kts | 304° |
| 2026-04-23 01:44 | 73.00205 | 59.57719 | 37628 ft | 497 kts | 304° |
| 2026-04-23 01:45 | 73.04120 | 59.38417 | 37629 ft | 497 kts | 304° |
| 2026-04-23 01:45 | 73.08044 | 59.18895 | 37621 ft | 497 kts | 304° |
| 2026-04-23 01:46 | 73.11955 | 58.99256 | 37627 ft | 497 kts | 303° |
| 2026-04-23 01:46 | 73.15839 | 58.79567 | 37626 ft | 497 kts | 303° |
| 2026-04-23 01:47 | 73.19710 | 58.59759 | 37622 ft | 497 kts | 303° |
| 2026-04-23 01:47 | 73.23563 | 58.39858 | 37619 ft | 498 kts | 303° |
| 2026-04-23 01:48 | 73.27401 | 58.19850 | 37612 ft | 498 kts | 303° |
| 2026-04-23 01:48 | 73.31220 | 57.99748 | 37612 ft | 498 kts | 303° |
| 2026-04-23 01:49 | 73.34990 | 57.79714 | 37612 ft | 498 kts | 302° |
| 2026-04-23 01:49 | 73.38767 | 57.59448 | 37609 ft | 498 kts | 302° |
| 2026-04-23 01:50 | 73.42527 | 57.39079 | 37610 ft | 498 kts | 302° |
| 2026-04-23 01:50 | 73.45635 | 57.22089 | 37609 ft | 498 kts | 302° |
| 2026-04-23 01:51 | 73.49361 | 57.01545 | 37604 ft | 498 kts | 302° |
| 2026-04-23 01:51 | 73.53066 | 56.80914 | 37604 ft | 498 kts | 302° |
| 2026-04-23 01:52 | 73.56750 | 56.60192 | 37599 ft | 498 kts | 301° |
| 2026-04-23 01:52 | 73.60405 | 56.39430 | 37591 ft | 498 kts | 301° |
| 2026-04-23 01:53 | 73.64049 | 56.18533 | 37585 ft | 497 kts | 301° |
| 2026-04-23 01:53 | 73.67665 | 55.97581 | 37573 ft | 498 kts | 301° |
| 2026-04-23 01:54 | 73.71240 | 55.76657 | 37569 ft | 498 kts | 301° |
| 2026-04-23 01:54 | 73.74818 | 55.55502 | 37559 ft | 498 kts | 301° |
| 2026-04-23 01:55 | 73.78373 | 55.34267 | 37557 ft | 498 kts | 301° |
| 2026-04-23 01:55 | 73.81914 | 55.12902 | 37549 ft | 498 kts | 300° |
| 2026-04-23 01:56 | 73.85429 | 54.91472 | 37550 ft | 498 kts | 300° |
| 2026-04-23 01:56 | 73.88919 | 54.69976 | 37542 ft | 498 kts | 300° |
| 2026-04-23 01:57 | 73.92393 | 54.48351 | 37540 ft | 498 kts | 300° |
| 2026-04-23 01:57 | 73.95818 | 54.26809 | 37539 ft | 498 kts | 300° |
| 2026-04-23 01:58 | 73.99269 | 54.04871 | 37538 ft | 498 kts | 300° |
| 2026-04-23 01:58 | 74.02733 | 53.83314 | 37535 ft | 498 kts | 302° |
| 2026-04-23 01:59 | 74.06387 | 53.61927 | 37535 ft | 498 kts | 302° |
| 2026-04-23 01:59 | 74.10025 | 53.40483 | 37535 ft | 498 kts | 302° |
| 2026-04-23 02:00 | 74.13612 | 53.18870 | 37536 ft | 498 kts | 301° |
| 2026-04-23 02:00 | 74.17166 | 52.97107 | 37535 ft | 497 kts | 301° |
| 2026-04-23 02:01 | 74.20690 | 52.75268 | 37530 ft | 497 kts | 301° |
| 2026-04-23 02:01 | 74.24196 | 52.53330 | 37530 ft | 497 kts | 301° |
| 2026-04-23 02:02 | 74.27678 | 52.31320 | 37526 ft | 497 kts | 301° |
| 2026-04-23 02:02 | 74.31109 | 52.09395 | 37517 ft | 497 kts | 300° |
| 2026-04-23 02:03 | 74.34546 | 51.87204 | 37525 ft | 497 kts | 300° |
| 2026-04-23 02:03 | 74.37955 | 51.64947 | 37523 ft | 497 kts | 300° |
| 2026-04-23 02:04 | 74.41348 | 51.42553 | 37518 ft | 497 kts | 300° |
| 2026-04-23 02:04 | 74.44710 | 51.20114 | 37513 ft | 497 kts | 300° |
| 2026-04-23 02:05 | 74.48054 | 50.97555 | 37505 ft | 497 kts | 300° |
| 2026-04-23 02:05 | 74.51374 | 50.74909 | 37511 ft | 496 kts | 299° |
| 2026-04-23 02:06 | 74.54670 | 50.52173 | 37505 ft | 496 kts | 299° |
| 2026-04-23 02:06 | 74.57941 | 50.29344 | 37504 ft | 496 kts | 299° |
| 2026-04-23 02:07 | 74.61166 | 50.06582 | 37499 ft | 497 kts | 299° |
| 2026-04-23 02:07 | 74.64395 | 49.83541 | 37496 ft | 497 kts | 298° |
| 2026-04-23 02:08 | 74.67599 | 49.60414 | 37490 ft | 497 kts | 298° |
| 2026-04-23 02:08 | 74.70785 | 49.37150 | 37496 ft | 497 kts | 298° |
| 2026-04-23 02:09 | 74.73945 | 49.13810 | 37492 ft | 498 kts | 298° |
| 2026-04-23 02:09 | 74.77083 | 48.90354 | 37492 ft | 498 kts | 297° |
| 2026-04-23 02:10 | 74.80196 | 48.66806 | 37490 ft | 498 kts | 297° |
| 2026-04-23 02:10 | 74.83292 | 48.43107 | 37488 ft | 498 kts | 297° |
| 2026-04-23 02:11 | 74.86342 | 48.19477 | 37484 ft | 498 kts | 297° |
| 2026-04-23 02:11 | 74.89384 | 47.95623 | 37488 ft | 498 kts | 297° |
| 2026-04-23 02:12 | 74.92401 | 47.71677 | 37492 ft | 498 kts | 297° |
| 2026-04-23 02:12 | 74.95390 | 47.47662 | 37495 ft | 498 kts | 296° |
| 2026-04-23 02:13 | 74.98360 | 47.23500 | 37486 ft | 498 kts | 296° |
| 2026-04-23 02:13 | 75.01302 | 46.99265 | 37493 ft | 498 kts | 296° |
| 2026-04-23 02:14 | 75.04214 | 46.74972 | 37500 ft | 498 kts | 296° |
| 2026-04-23 02:14 | 75.07102 | 46.50568 | 37493 ft | 498 kts | 296° |
| 2026-04-23 02:15 | 75.11366 | 46.13957 | 37503 ft | 498 kts | 295° |
| 2026-04-23 02:16 | 75.14186 | 45.89354 | 37511 ft | 497 kts | 295° |
| 2026-04-23 02:16 | 75.16979 | 45.64671 | 37513 ft | 497 kts | 295° |
| 2026-04-23 02:17 | 75.19746 | 45.39885 | 37507 ft | 497 kts | 295° |
| 2026-04-23 02:17 | 75.22487 | 45.15005 | 37505 ft | 497 kts | 295° |
| 2026-04-23 02:18 | 75.25198 | 44.90067 | 37511 ft | 497 kts | 295° |
| 2026-04-23 02:18 | 75.27865 | 44.65206 | 37508 ft | 497 kts | 294° |
| 2026-04-23 02:19 | 75.30537 | 44.39954 | 37509 ft | 496 kts | 294° |
| 2026-04-23 02:19 | 75.33151 | 44.14907 | 37514 ft | 496 kts | 294° |
| 2026-04-23 02:20 | 75.35751 | 43.89641 | 37509 ft | 496 kts | 294° |
| 2026-04-23 02:20 | 75.38323 | 43.64301 | 37515 ft | 496 kts | 294° |
| 2026-04-23 02:21 | 75.40869 | 43.38856 | 37515 ft | 496 kts | 293° |
| 2026-04-23 02:21 | 75.43384 | 43.13351 | 37516 ft | 496 kts | 293° |
| 2026-04-23 02:22 | 75.45871 | 42.87777 | 37523 ft | 496 kts | 293° |
| 2026-04-23 02:22 | 75.48313 | 42.62287 | 37520 ft | 496 kts | 292° |
| 2026-04-23 02:23 | 75.50745 | 42.36533 | 37520 ft | 496 kts | 292° |
| 2026-04-23 02:23 | 75.53147 | 42.10717 | 37523 ft | 495 kts | 292° |
| 2026-04-23 02:24 | 75.55520 | 41.84823 | 37524 ft | 495 kts | 292° |
| 2026-04-23 02:24 | 75.57862 | 41.58875 | 37528 ft | 495 kts | 292° |
| 2026-04-23 02:25 | 75.60172 | 41.32877 | 37528 ft | 494 kts | 291° |
| 2026-04-23 02:25 | 75.62457 | 41.06775 | 37529 ft | 494 kts | 291° |
| 2026-04-23 02:26 | 75.64709 | 40.80629 | 37529 ft | 494 kts | 291° |
| 2026-04-23 02:26 | 75.66934 | 40.54389 | 37534 ft | 494 kts | 291° |
| 2026-04-23 02:27 | 75.69131 | 40.28051 | 37538 ft | 494 kts | 290° |
| 2026-04-23 02:27 | 75.71285 | 40.01818 | 37541 ft | 494 kts | 290° |
| 2026-04-23 02:28 | 75.73422 | 39.75350 | 37543 ft | 493 kts | 290° |
| 2026-04-23 02:28 | 75.75524 | 39.48881 | 37552 ft | 493 kts | 290° |
| 2026-04-23 02:29 | 75.77598 | 39.22311 | 37551 ft | 493 kts | 290° |
| 2026-04-23 02:29 | 75.79644 | 38.95659 | 37557 ft | 493 kts | 289° |
| 2026-04-23 02:30 | 75.81657 | 38.68969 | 37559 ft | 492 kts | 289° |
| 2026-04-23 02:30 | 75.83638 | 38.42238 | 37560 ft | 492 kts | 289° |
| 2026-04-23 02:31 | 75.85580 | 38.15577 | 37564 ft | 492 kts | 289° |
| 2026-04-23 02:31 | 75.87502 | 37.88700 | 37568 ft | 491 kts | 288° |
| 2026-04-23 02:32 | 75.89391 | 37.61803 | 37574 ft | 491 kts | 288° |
| 2026-04-23 02:32 | 75.91251 | 37.34813 | 37574 ft | 491 kts | 288° |
| 2026-04-23 02:33 | 75.93081 | 37.07764 | 37578 ft | 491 kts | 288° |
| 2026-04-23 02:33 | 75.94865 | 36.80864 | 37586 ft | 490 kts | 288° |
| 2026-04-23 02:34 | 75.96632 | 36.53732 | 37586 ft | 490 kts | 287° |
| 2026-04-23 02:34 | 75.98367 | 36.26529 | 37591 ft | 490 kts | 287° |
| 2026-04-23 02:35 | 76.00213 | 35.99460 | 37594 ft | 488 kts | 293° |
| 2026-04-23 02:35 | 76.02760 | 35.73522 | 37596 ft | 487 kts | 295° |
| 2026-04-23 02:36 | 76.05407 | 35.47734 | 37595 ft | 486 kts | 295° |
| 2026-04-23 02:36 | 76.07604 | 35.26255 | 37598 ft | 486 kts | 295° |
| 2026-04-23 02:37 | 76.10217 | 35.00292 | 37601 ft | 486 kts | 295° |
| 2026-04-23 02:37 | 76.12788 | 34.74279 | 37607 ft | 486 kts | 294° |
| 2026-04-23 02:38 | 76.15331 | 34.48141 | 37609 ft | 486 kts | 294° |
| 2026-04-23 02:38 | 76.17830 | 34.22070 | 37612 ft | 486 kts | 294° |
| 2026-04-23 02:39 | 76.20314 | 33.95785 | 37612 ft | 486 kts | 294° |
| 2026-04-23 02:39 | 76.22775 | 33.69365 | 37613 ft | 486 kts | 294° |
| 2026-04-23 02:40 | 76.25206 | 33.42861 | 37608 ft | 486 kts | 293° |
| 2026-04-23 02:40 | 76.27607 | 33.16289 | 37611 ft | 485 kts | 293° |
| 2026-04-23 02:41 | 76.29976 | 32.89654 | 37621 ft | 485 kts | 293° |
| 2026-04-23 02:41 | 76.32304 | 32.63081 | 37619 ft | 485 kts | 292° |
| 2026-04-23 02:42 | 76.34617 | 32.36268 | 37624 ft | 485 kts | 292° |
| 2026-04-23 02:42 | 76.36897 | 32.09401 | 37626 ft | 485 kts | 292° |
| 2026-04-23 02:43 | 76.39150 | 31.82431 | 37631 ft | 484 kts | 292° |
| 2026-04-23 02:43 | 76.41373 | 31.55384 | 37626 ft | 484 kts | 291° |
| 2026-04-23 02:44 | 76.43563 | 31.28304 | 37632 ft | 484 kts | 291° |
| 2026-04-23 02:44 | 76.45710 | 31.01305 | 37633 ft | 483 kts | 291° |
| 2026-04-23 02:45 | 76.47838 | 30.74097 | 37634 ft | 483 kts | 291° |
| 2026-04-23 02:45 | 76.49936 | 30.46808 | 37642 ft | 483 kts | 290° |
| 2026-04-23 02:46 | 76.52004 | 30.19436 | 37640 ft | 482 kts | 290° |
| 2026-04-23 02:46 | 76.54036 | 29.92069 | 37642 ft | 481 kts | 290° |
| 2026-04-23 02:47 | 76.56038 | 29.64638 | 37647 ft | 481 kts | 290° |
| 2026-04-23 02:47 | 76.58007 | 29.37161 | 37649 ft | 480 kts | 289° |
| 2026-04-23 02:48 | 76.59946 | 29.09619 | 37649 ft | 480 kts | 289° |
| 2026-04-23 02:48 | 76.61853 | 28.82017 | 37656 ft | 480 kts | 289° |
| 2026-04-23 02:49 | 76.63730 | 28.54350 | 37654 ft | 479 kts | 289° |
| 2026-04-23 02:49 | 76.65560 | 28.26845 | 37657 ft | 479 kts | 289° |
| 2026-04-23 02:50 | 76.67385 | 27.98905 | 37662 ft | 478 kts | 288° |
| 2026-04-23 02:50 | 76.69151 | 27.71324 | 37665 ft | 478 kts | 288° |
| 2026-04-23 02:51 | 76.70900 | 27.43468 | 37662 ft | 477 kts | 288° |
| 2026-04-23 02:51 | 76.72617 | 27.15573 | 37669 ft | 477 kts | 288° |
| 2026-04-23 02:52 | 76.74302 | 26.87627 | 37669 ft | 477 kts | 287° |
| 2026-04-23 02:52 | 76.75950 | 26.59724 | 37677 ft | 476 kts | 287° |
| 2026-04-23 02:53 | 76.77576 | 26.31608 | 37676 ft | 476 kts | 287° |
| 2026-04-23 02:53 | 76.79155 | 26.03716 | 37687 ft | 475 kts | 286° |
| 2026-04-23 02:54 | 76.80711 | 25.75629 | 37679 ft | 475 kts | 286° |
| 2026-04-23 02:54 | 76.82237 | 25.47459 | 37678 ft | 475 kts | 286° |
| 2026-04-23 02:55 | 76.83730 | 25.19257 | 37690 ft | 475 kts | 285° |
| 2026-04-23 02:55 | 76.85195 | 24.90958 | 37690 ft | 474 kts | 285° |
| 2026-04-23 02:56 | 76.86625 | 24.62667 | 37690 ft | 474 kts | 285° |
| 2026-04-23 02:56 | 76.88026 | 24.34276 | 37693 ft | 474 kts | 285° |
| 2026-04-23 02:57 | 76.89385 | 24.06054 | 37702 ft | 474 kts | 284° |
| 2026-04-23 02:57 | 76.90722 | 23.77588 | 37706 ft | 475 kts | 284° |
| 2026-04-23 02:58 | 76.92031 | 23.49004 | 37709 ft | 475 kts | 284° |
| 2026-04-23 02:58 | 76.93306 | 23.20400 | 37714 ft | 475 kts | 284° |
| 2026-04-23 02:59 | 76.94551 | 22.91707 | 37720 ft | 475 kts | 283° |
| 2026-04-23 02:59 | 76.95764 | 22.62995 | 37721 ft | 475 kts | 283° |
| 2026-04-23 03:00 | 76.96946 | 22.34196 | 37721 ft | 475 kts | 283° |
| 2026-04-23 03:00 | 76.98096 | 22.05341 | 37726 ft | 475 kts | 282° |
| 2026-04-23 03:01 | 76.99214 | 21.76451 | 37734 ft | 475 kts | 282° |
| 2026-04-23 03:01 | 77.00293 | 21.47697 | 37736 ft | 475 kts | 282° |
| 2026-04-23 03:02 | 77.01346 | 21.18727 | 37738 ft | 475 kts | 282° |
| 2026-04-23 03:02 | 77.02367 | 20.89728 | 37742 ft | 475 kts | 282° |
| 2026-04-23 03:03 | 77.03356 | 20.60691 | 37746 ft | 474 kts | 281° |
| 2026-04-23 03:03 | 77.04312 | 20.31608 | 37749 ft | 474 kts | 281° |
| 2026-04-23 03:04 | 77.05235 | 20.02516 | 37753 ft | 474 kts | 281° |
| 2026-04-23 03:04 | 77.06126 | 19.73373 | 37751 ft | 474 kts | 280° |
| 2026-04-23 03:05 | 77.06985 | 19.44183 | 37759 ft | 474 kts | 280° |
| 2026-04-23 03:05 | 77.07806 | 19.15153 | 37763 ft | 474 kts | 280° |
| 2026-04-23 03:06 | 77.08598 | 18.85937 | 37764 ft | 473 kts | 279° |
| 2026-04-23 03:06 | 77.09358 | 18.56707 | 37767 ft | 473 kts | 279° |
| 2026-04-23 03:07 | 77.10085 | 18.27441 | 37769 ft | 472 kts | 279° |
| 2026-04-23 03:07 | 77.10778 | 17.98213 | 37777 ft | 472 kts | 279° |
| 2026-04-23 03:08 | 77.11439 | 17.68976 | 37780 ft | 471 kts | 278° |
| 2026-04-23 03:08 | 77.12065 | 17.39759 | 37780 ft | 471 kts | 278° |
| 2026-04-23 03:09 | 77.12656 | 17.10710 | 37782 ft | 470 kts | 278° |
| 2026-04-23 03:09 | 77.13217 | 16.81509 | 37784 ft | 469 kts | 278° |
| 2026-04-23 03:10 | 77.13744 | 16.52354 | 37789 ft | 469 kts | 277° |
| 2026-04-23 03:10 | 77.14240 | 16.23128 | 37792 ft | 469 kts | 277° |
| 2026-04-23 03:11 | 77.14703 | 15.93903 | 37799 ft | 468 kts | 277° |
| 2026-04-23 03:11 | 77.15133 | 15.64727 | 37809 ft | 468 kts | 277° |
| 2026-04-23 03:12 | 77.15528 | 15.35723 | 37817 ft | 468 kts | 277° |
| 2026-04-23 03:12 | 77.15892 | 15.06512 | 37824 ft | 467 kts | 276° |
| 2026-04-23 03:13 | 77.16225 | 14.77359 | 37832 ft | 467 kts | 276° |
| 2026-04-23 03:13 | 77.16526 | 14.48171 | 37881 ft | 467 kts | 276° |
| 2026-04-23 03:13 | 77.16624 | 14.33547 | 38122 ft | 469 kts | 272° |
| 2026-04-23 03:14 | 77.16489 | 14.18849 | 38457 ft | 469 kts | 270° |
| 2026-04-23 03:14 | 77.16291 | 14.04235 | 38708 ft | 469 kts | 270° |
| 2026-04-23 03:14 | 77.16061 | 13.89599 | 38932 ft | 469 kts | 269° |
| 2026-04-23 03:14 | 77.15810 | 13.74981 | 39156 ft | 469 kts | 269° |
| 2026-04-23 03:15 | 77.15551 | 13.60540 | 39367 ft | 469 kts | 269° |
| 2026-04-23 03:15 | 77.15280 | 13.45886 | 39584 ft | 469 kts | 269° |
| 2026-04-23 03:15 | 77.15003 | 13.31286 | 39795 ft | 469 kts | 268° |
| 2026-04-23 03:16 | 77.14432 | 13.02111 | 39881 ft | 468 kts | 268° |
| 2026-04-23 03:16 | 77.13521 | 12.58437 | 39884 ft | 468 kts | 268° |
| 2026-04-23 03:17 | 77.12874 | 12.29344 | 39888 ft | 468 kts | 267° |
| 2026-04-23 03:17 | 77.12195 | 12.00279 | 39896 ft | 468 kts | 267° |
| 2026-04-23 03:18 | 77.11485 | 11.71303 | 39901 ft | 468 kts | 267° |
| 2026-04-23 03:18 | 77.10742 | 11.42338 | 39911 ft | 468 kts | 266° |
| 2026-04-23 03:19 | 77.09969 | 11.13434 | 39912 ft | 467 kts | 266° |
| 2026-04-23 03:19 | 77.09169 | 10.84753 | 39922 ft | 467 kts | 266° |
| 2026-04-23 03:20 | 77.08332 | 10.55926 | 39932 ft | 467 kts | 266° |
| 2026-04-23 03:20 | 77.07466 | 10.27187 | 39940 ft | 466 kts | 265° |
| 2026-04-23 03:21 | 77.06569 | 9.98515 | 39949 ft | 466 kts | 265° |
| 2026-04-23 03:21 | 77.05641 | 9.69876 | 39955 ft | 466 kts | 265° |
| 2026-04-23 03:22 | 77.04846 | 9.46131 | 39962 ft | 465 kts | 265° |
| 2026-04-23 03:22 | 77.03863 | 9.17634 | 39971 ft | 465 kts | 264° |
| 2026-04-23 03:23 | 77.02850 | 8.89196 | 39978 ft | 465 kts | 264° |
| 2026-04-23 03:23 | 77.01807 | 8.60858 | 39986 ft | 464 kts | 264° |
| 2026-04-23 03:24 | 77.00732 | 8.32487 | 39996 ft | 464 kts | 264° |
| 2026-04-23 03:24 | 76.99634 | 8.04395 | 40004 ft | 464 kts | 263° |
| 2026-04-23 03:25 | 76.98500 | 7.76187 | 40007 ft | 464 kts | 263° |
| 2026-04-23 03:25 | 76.97338 | 7.48077 | 40016 ft | 464 kts | 263° |
| 2026-04-23 03:26 | 76.96143 | 7.19980 | 40022 ft | 463 kts | 263° |
| 2026-04-23 03:26 | 76.94920 | 6.91968 | 40030 ft | 463 kts | 262° |
| 2026-04-23 03:27 | 76.93667 | 6.64010 | 40037 ft | 463 kts | 262° |
| 2026-04-23 03:27 | 76.92385 | 6.36113 | 40046 ft | 463 kts | 262° |
| 2026-04-23 03:28 | 76.91073 | 6.08278 | 40058 ft | 463 kts | 262° |
| 2026-04-23 03:28 | 76.89738 | 5.80651 | 40060 ft | 463 kts | 261° |
| 2026-04-23 03:29 | 76.88368 | 5.52944 | 40070 ft | 463 kts | 261° |
| 2026-04-23 03:29 | 76.86967 | 5.25279 | 40074 ft | 463 kts | 261° |
| 2026-04-23 03:30 | 76.85538 | 4.97703 | 40080 ft | 463 kts | 261° |
| 2026-04-23 03:30 | 76.84077 | 4.70141 | 40086 ft | 462 kts | 260° |
| 2026-04-23 03:31 | 76.82590 | 4.42691 | 40095 ft | 462 kts | 260° |
| 2026-04-23 03:31 | 76.81074 | 4.15310 | 40103 ft | 462 kts | 259° |
| 2026-04-23 03:32 | 76.79530 | 3.88004 | 40107 ft | 462 kts | 259° |
| 2026-04-23 03:32 | 76.77966 | 3.60907 | 40115 ft | 462 kts | 259° |
| 2026-04-23 03:33 | 76.76366 | 3.33760 | 40124 ft | 462 kts | 259° |
| 2026-04-23 03:33 | 76.74736 | 3.06656 | 40129 ft | 462 kts | 258° |
| 2026-04-23 03:34 | 76.73079 | 2.79638 | 40135 ft | 461 kts | 258° |
| 2026-04-23 03:34 | 76.71396 | 2.52720 | 40142 ft | 461 kts | 258° |
| 2026-04-23 03:35 | 76.69683 | 2.25842 | 40147 ft | 461 kts | 257° |
| 2026-04-23 03:35 | 76.67943 | 1.99054 | 40155 ft | 461 kts | 257° |
| 2026-04-23 03:36 | 76.66185 | 1.72490 | 40161 ft | 461 kts | 257° |
| 2026-04-23 03:36 | 76.64391 | 1.45864 | 40166 ft | 461 kts | 257° |
| 2026-04-23 03:37 | 76.62565 | 1.19256 | 40169 ft | 461 kts | 256° |
| 2026-04-23 03:37 | 76.60711 | 0.92714 | 40175 ft | 461 kts | 256° |
| 2026-04-23 03:38 | 76.58831 | 0.66254 | 40180 ft | 461 kts | 256° |
| 2026-04-23 03:38 | 76.56924 | 0.39888 | 40187 ft | 461 kts | 256° |
| 2026-04-23 03:39 | 76.54988 | 0.13561 | 40197 ft | 462 kts | 256° |
| 2026-04-23 03:39 | 76.53040 | -0.12474 | 40198 ft | 462 kts | 255° |
| 2026-04-23 03:40 | 76.51048 | -0.38670 | 40200 ft | 462 kts | 255° |
| 2026-04-23 03:40 | 76.49032 | -0.64748 | 40203 ft | 462 kts | 255° |
| 2026-04-23 03:41 | 76.46986 | -0.90791 | 40205 ft | 462 kts | 255° |
| 2026-04-23 03:41 | 76.44912 | -1.16762 | 40207 ft | 462 kts | 254° |
| 2026-04-23 03:42 | 76.42825 | -1.42492 | 40217 ft | 462 kts | 254° |
| 2026-04-23 03:42 | 76.40698 | -1.68304 | 40220 ft | 462 kts | 254° |
| 2026-04-23 03:43 | 76.38546 | -1.94027 | 40226 ft | 462 kts | 253° |
| 2026-04-23 03:43 | 76.36364 | -2.19711 | 40232 ft | 462 kts | 253° |
| 2026-04-23 03:44 | 76.34162 | -2.45242 | 40233 ft | 462 kts | 253° |
| 2026-04-23 03:44 | 76.31931 | -2.70722 | 40241 ft | 462 kts | 253° |
| 2026-04-23 03:45 | 76.29689 | -2.95952 | 40241 ft | 462 kts | 253° |
| 2026-04-23 03:45 | 76.27409 | -3.21247 | 40249 ft | 462 kts | 252° |
| 2026-04-23 03:46 | 76.25098 | -3.46503 | 40250 ft | 462 kts | 252° |
| 2026-04-23 03:46 | 76.22762 | -3.71679 | 40254 ft | 462 kts | 252° |
| 2026-04-23 03:47 | 76.20421 | -3.96555 | 40256 ft | 462 kts | 252° |
| 2026-04-23 03:47 | 76.18037 | -4.21533 | 40259 ft | 462 kts | 252° |
| 2026-04-23 03:48 | 76.15631 | -4.46395 | 40260 ft | 462 kts | 251° |
| 2026-04-23 03:48 | 76.13198 | -4.71195 | 40266 ft | 462 kts | 251° |
| 2026-04-23 03:49 | 76.10738 | -4.95923 | 40267 ft | 462 kts | 251° |
| 2026-04-23 03:49 | 76.08269 | -5.20416 | 40273 ft | 462 kts | 251° |
| 2026-04-23 03:50 | 76.05761 | -5.44963 | 40270 ft | 462 kts | 251° |
| 2026-04-23 03:50 | 76.03233 | -5.69383 | 40279 ft | 461 kts | 250° |
| 2026-04-23 03:51 | 76.00686 | -5.93770 | 40273 ft | 461 kts | 251° |
| 2026-04-23 03:51 | 75.98679 | -6.18759 | 40278 ft | 458 kts | 257° |
| 2026-04-23 03:52 | 75.96874 | -6.43915 | 40286 ft | 457 kts | 257° |
| 2026-04-23 03:52 | 75.95080 | -6.69007 | 40290 ft | 457 kts | 257° |
| 2026-04-23 03:53 | 75.93248 | -6.94063 | 40287 ft | 457 kts | 256° |
| 2026-04-23 03:53 | 75.91382 | -7.19031 | 40284 ft | 457 kts | 256° |
| 2026-04-23 03:54 | 75.89501 | -7.43759 | 40289 ft | 457 kts | 256° |
| 2026-04-23 03:54 | 75.87581 | -7.68589 | 40290 ft | 456 kts | 256° |
| 2026-04-23 03:55 | 75.85636 | -7.93350 | 40292 ft | 456 kts | 256° |
| 2026-04-23 03:55 | 75.83669 | -8.18013 | 40296 ft | 456 kts | 255° |
| 2026-04-23 03:56 | 75.81678 | -8.42599 | 40300 ft | 456 kts | 255° |
| 2026-04-23 03:56 | 75.79666 | -8.67069 | 40299 ft | 455 kts | 255° |
| 2026-04-23 03:57 | 75.77643 | -8.91289 | 40300 ft | 455 kts | 255° |
| 2026-04-23 03:57 | 75.75583 | -9.15614 | 40302 ft | 455 kts | 255° |
| 2026-04-23 03:58 | 75.73500 | -9.39828 | 40308 ft | 454 kts | 254° |
| 2026-04-23 03:58 | 75.71394 | -9.63979 | 40303 ft | 454 kts | 254° |
| 2026-04-23 03:59 | 75.69265 | -9.88035 | 40300 ft | 454 kts | 254° |
| 2026-04-23 03:59 | 75.67115 | -10.11979 | 40309 ft | 453 kts | 254° |
| 2026-04-23 04:00 | 75.64943 | -10.35846 | 40303 ft | 453 kts | 253° |
| 2026-04-23 04:00 | 75.62761 | -10.59483 | 40308 ft | 452 kts | 253° |
| 2026-04-23 04:01 | 75.60548 | -10.83130 | 40315 ft | 452 kts | 253° |
| 2026-04-23 04:01 | 75.58312 | -11.06712 | 40319 ft | 451 kts | 253° |
| 2026-04-23 04:02 | 75.56053 | -11.30210 | 40317 ft | 450 kts | 253° |
| 2026-04-23 04:02 | 75.53778 | -11.53568 | 40323 ft | 450 kts | 253° |
| 2026-04-23 04:03 | 75.51498 | -11.76668 | 40317 ft | 449 kts | 252° |
| 2026-04-23 04:03 | 75.49183 | -11.99820 | 40318 ft | 449 kts | 252° |
| 2026-04-23 04:04 | 75.46847 | -12.22894 | 40321 ft | 448 kts | 252° |
| 2026-04-23 04:04 | 75.44492 | -12.45847 | 40317 ft | 448 kts | 252° |
| 2026-04-23 04:05 | 75.42117 | -12.68714 | 40319 ft | 447 kts | 252° |
| 2026-04-23 04:05 | 75.39725 | -12.91456 | 40318 ft | 447 kts | 251° |
| 2026-04-23 04:06 | 75.37313 | -13.14105 | 40318 ft | 446 kts | 251° |
| 2026-04-23 04:06 | 75.34883 | -13.36654 | 40320 ft | 445 kts | 251° |
| 2026-04-23 04:07 | 75.32434 | -13.59092 | 40320 ft | 445 kts | 251° |
| 2026-04-23 04:07 | 75.29985 | -13.81270 | 40322 ft | 444 kts | 250° |
| 2026-04-23 04:08 | 75.27503 | -14.03486 | 40326 ft | 443 kts | 250° |
| 2026-04-23 04:08 | 75.25004 | -14.25588 | 40326 ft | 442 kts | 250° |
| 2026-04-23 04:09 | 75.22485 | -14.47610 | 40325 ft | 442 kts | 250° |
| 2026-04-23 04:09 | 75.19951 | -14.69506 | 40326 ft | 441 kts | 250° |
| 2026-04-23 04:10 | 75.17832 | -14.87628 | 40328 ft | 441 kts | 249° |
| 2026-04-23 04:10 | 75.15266 | -15.09354 | 40324 ft | 440 kts | 249° |
| 2026-04-23 04:11 | 75.12685 | -15.30950 | 40328 ft | 440 kts | 249° |
| 2026-04-23 04:11 | 75.10081 | -15.52496 | 40324 ft | 440 kts | 249° |
| 2026-04-23 04:12 | 75.07460 | -15.73949 | 40328 ft | 439 kts | 248° |
| 2026-04-23 04:12 | 75.04818 | -15.95334 | 40325 ft | 439 kts | 248° |
| 2026-04-23 04:13 | 75.02159 | -16.16620 | 40328 ft | 439 kts | 248° |
| 2026-04-23 04:13 | 74.99504 | -16.37654 | 40331 ft | 439 kts | 248° |
| 2026-04-23 04:14 | 74.96807 | -16.58784 | 40327 ft | 439 kts | 248° |
| 2026-04-23 04:14 | 74.94092 | -16.79832 | 40326 ft | 439 kts | 247° |
| 2026-04-23 04:15 | 74.91358 | -17.00809 | 40324 ft | 439 kts | 247° |
| 2026-04-23 04:16 | 74.87219 | -17.32143 | 40326 ft | 439 kts | 246° |
| 2026-04-23 04:16 | 74.84434 | -17.52948 | 40326 ft | 439 kts | 246° |
| 2026-04-23 04:17 | 74.81633 | -17.73660 | 40328 ft | 439 kts | 246° |
| 2026-04-23 04:17 | 74.78809 | -17.94321 | 40326 ft | 439 kts | 246° |
| 2026-04-23 04:18 | 74.75968 | -18.14901 | 40328 ft | 439 kts | 245° |
| 2026-04-23 04:18 | 74.73128 | -18.35262 | 40330 ft | 439 kts | 245° |
| 2026-04-23 04:19 | 74.70252 | -18.55677 | 40323 ft | 439 kts | 245° |
| 2026-04-23 04:19 | 74.67360 | -18.76001 | 40324 ft | 439 kts | 245° |
| 2026-04-23 04:20 | 74.64446 | -18.96271 | 40326 ft | 439 kts | 245° |
| 2026-04-23 04:20 | 74.61510 | -19.16501 | 40323 ft | 439 kts | 244° |
| 2026-04-23 04:21 | 74.58563 | -19.36596 | 40328 ft | 439 kts | 244° |
| 2026-04-23 04:21 | 74.55591 | -19.56668 | 40324 ft | 439 kts | 244° |
| 2026-04-23 04:22 | 74.52606 | -19.76631 | 40324 ft | 439 kts | 244° |
| 2026-04-23 04:22 | 74.49596 | -19.96563 | 40320 ft | 439 kts | 244° |
| 2026-04-23 04:23 | 74.46570 | -20.16406 | 40319 ft | 439 kts | 243° |
| 2026-04-23 04:23 | 74.43548 | -20.36042 | 40318 ft | 440 kts | 243° |
| 2026-04-23 04:24 | 74.40487 | -20.55739 | 40313 ft | 440 kts | 243° |
| 2026-04-23 04:24 | 74.37400 | -20.75412 | 40312 ft | 440 kts | 243° |
| 2026-04-23 04:25 | 74.34296 | -20.95010 | 40315 ft | 441 kts | 242° |
| 2026-04-23 04:25 | 74.31173 | -21.14540 | 40310 ft | 442 kts | 242° |
| 2026-04-23 04:26 | 74.28026 | -21.34029 | 40304 ft | 442 kts | 242° |
| 2026-04-23 04:26 | 74.24861 | -21.53456 | 40303 ft | 442 kts | 242° |
| 2026-04-23 04:27 | 74.21680 | -21.72804 | 40299 ft | 443 kts | 242° |
| 2026-04-23 04:27 | 74.18495 | -21.91988 | 40293 ft | 443 kts | 241° |
| 2026-04-23 04:28 | 74.13656 | -22.20805 | 40294 ft | 443 kts | 241° |
| 2026-04-23 04:28 | 74.10408 | -22.39930 | 40292 ft | 443 kts | 240° |
| 2026-04-23 04:29 | 74.07138 | -22.59005 | 40289 ft | 443 kts | 240° |
| 2026-04-23 04:29 | 74.03854 | -22.77989 | 40284 ft | 443 kts | 240° |
| 2026-04-23 04:30 | 74.00571 | -22.96801 | 40284 ft | 444 kts | 240° |
| 2026-04-23 04:30 | 73.97280 | -23.15881 | 40282 ft | 444 kts | 241° |
| 2026-04-23 04:31 | 73.94103 | -23.34874 | 40285 ft | 444 kts | 241° |
| 2026-04-23 04:31 | 73.90888 | -23.53941 | 40280 ft | 444 kts | 240° |
| 2026-04-23 04:32 | 73.87639 | -23.72900 | 40285 ft | 445 kts | 240° |
| 2026-04-23 04:32 | 73.84361 | -23.91792 | 40280 ft | 445 kts | 240° |
| 2026-04-23 04:33 | 73.81062 | -24.10625 | 40279 ft | 446 kts | 240° |
| 2026-04-23 04:33 | 73.77749 | -24.29376 | 40281 ft | 446 kts | 239° |
| 2026-04-23 04:34 | 73.74417 | -24.48070 | 40279 ft | 446 kts | 239° |
| 2026-04-23 04:34 | 73.71082 | -24.66612 | 40275 ft | 447 kts | 239° |
| 2026-04-23 04:35 | 73.67708 | -24.85207 | 40276 ft | 447 kts | 239° |
| 2026-04-23 04:35 | 73.64320 | -25.03717 | 40271 ft | 447 kts | 239° |
| 2026-04-23 04:36 | 73.60911 | -25.22183 | 40262 ft | 448 kts | 238° |
| 2026-04-23 04:36 | 73.57483 | -25.40585 | 40237 ft | 448 kts | 238° |
| 2026-04-23 04:37 | 73.54035 | -25.58939 | 40229 ft | 448 kts | 238° |
| 2026-04-23 04:37 | 73.50588 | -25.77128 | 40215 ft | 449 kts | 238° |
| 2026-04-23 04:38 | 73.47102 | -25.95359 | 40199 ft | 449 kts | 238° |
| 2026-04-23 04:38 | 73.43599 | -26.13529 | 40193 ft | 450 kts | 237° |
| 2026-04-23 04:39 | 73.40072 | -26.31663 | 40203 ft | 450 kts | 237° |
| 2026-04-23 04:39 | 73.36530 | -26.49719 | 40192 ft | 451 kts | 237° |
| 2026-04-23 04:40 | 73.33002 | -26.67502 | 40195 ft | 440 kts | 238° |
| 2026-04-23 04:40 | 73.29519 | -26.84964 | 40191 ft | 438 kts | 238° |
| 2026-04-23 04:41 | 73.26035 | -27.02308 | 40187 ft | 437 kts | 238° |
| 2026-04-23 04:41 | 73.22539 | -27.19562 | 40171 ft | 437 kts | 238° |
| 2026-04-23 04:42 | 73.19052 | -27.36613 | 40172 ft | 437 kts | 238° |
| 2026-04-23 04:42 | 73.15527 | -27.53718 | 40163 ft | 437 kts | 238° |
| 2026-04-23 04:43 | 73.11989 | -27.70748 | 40140 ft | 437 kts | 237° |
| 2026-04-23 04:43 | 73.08439 | -27.87702 | 40147 ft | 436 kts | 237° |
| 2026-04-23 04:44 | 73.04908 | -28.04425 | 40146 ft | 435 kts | 237° |
| 2026-04-23 04:44 | 73.01346 | -28.21162 | 40126 ft | 434 kts | 237° |
| 2026-04-23 04:45 | 72.97770 | -28.37825 | 40138 ft | 434 kts | 237° |
| 2026-04-23 04:45 | 72.94189 | -28.54391 | 40161 ft | 433 kts | 237° |
| 2026-04-23 04:46 | 72.90602 | -28.70863 | 40169 ft | 433 kts | 237° |
| 2026-04-23 04:46 | 72.87011 | -28.87224 | 40186 ft | 432 kts | 237° |
| 2026-04-23 04:47 | 72.83408 | -29.03507 | 40188 ft | 431 kts | 236° |
| 2026-04-23 04:47 | 72.79797 | -29.19705 | 40192 ft | 431 kts | 236° |
| 2026-04-23 04:48 | 72.76175 | -29.35824 | 40198 ft | 431 kts | 236° |
| 2026-04-23 04:48 | 72.72567 | -29.51761 | 40200 ft | 430 kts | 236° |
| 2026-04-23 04:49 | 72.68924 | -29.67735 | 40186 ft | 430 kts | 236° |
| 2026-04-23 04:49 | 72.65276 | -29.83610 | 40181 ft | 429 kts | 236° |
| 2026-04-23 04:50 | 72.61621 | -29.99395 | 40167 ft | 429 kts | 236° |
| 2026-04-23 04:50 | 72.57954 | -30.15116 | 40153 ft | 429 kts | 235° |
| 2026-04-23 04:51 | 72.54269 | -30.30799 | 40144 ft | 430 kts | 235° |
| 2026-04-23 04:51 | 72.50571 | -30.46424 | 40144 ft | 430 kts | 235° |
| 2026-04-23 04:52 | 72.46880 | -30.61899 | 40147 ft | 430 kts | 234° |
| 2026-04-23 04:52 | 72.43149 | -30.77427 | 40149 ft | 431 kts | 234° |
| 2026-04-23 04:53 | 72.39407 | -30.92890 | 40156 ft | 431 kts | 234° |
| 2026-04-23 04:53 | 72.35649 | -31.08299 | 40164 ft | 431 kts | 234° |
| 2026-04-23 04:54 | 72.31876 | -31.23661 | 40171 ft | 431 kts | 234° |
| 2026-04-23 04:54 | 72.28094 | -31.38950 | 40178 ft | 431 kts | 233° |
| 2026-04-23 04:55 | 72.24938 | -31.51620 | 40181 ft | 431 kts | 233° |
| 2026-04-23 04:55 | 72.21130 | -31.66810 | 40180 ft | 431 kts | 233° |
| 2026-04-23 04:56 | 72.17309 | -31.81939 | 40184 ft | 431 kts | 233° |
| 2026-04-23 04:56 | 72.13510 | -31.96875 | 40187 ft | 431 kts | 233° |
| 2026-04-23 04:57 | 72.09673 | -32.11856 | 40186 ft | 431 kts | 233° |
| 2026-04-23 04:57 | 72.05825 | -32.26769 | 40189 ft | 431 kts | 232° |
| 2026-04-23 04:58 | 72.01966 | -32.41622 | 40193 ft | 430 kts | 232° |
| 2026-04-23 04:58 | 71.98102 | -32.56386 | 40198 ft | 430 kts | 232° |
| 2026-04-23 04:59 | 71.94224 | -32.71102 | 40197 ft | 430 kts | 232° |
| 2026-04-23 04:59 | 71.90363 | -32.85650 | 40198 ft | 429 kts | 232° |
| 2026-04-23 05:00 | 71.86472 | -33.00214 | 40202 ft | 429 kts | 232° |
| 2026-04-23 05:00 | 71.82572 | -33.14707 | 40205 ft | 429 kts | 231° |
| 2026-04-23 05:01 | 71.78659 | -33.29152 | 40213 ft | 429 kts | 231° |
| 2026-04-23 05:01 | 71.74734 | -33.43536 | 40219 ft | 429 kts | 231° |
| 2026-04-23 05:02 | 71.70793 | -33.57885 | 40220 ft | 429 kts | 231° |
| 2026-04-23 05:02 | 71.66852 | -33.72133 | 40222 ft | 429 kts | 231° |
| 2026-04-23 05:03 | 71.62929 | -33.86222 | 40226 ft | 429 kts | 231° |
| 2026-04-23 05:03 | 71.58969 | -34.00346 | 40237 ft | 429 kts | 231° |
| 2026-04-23 05:04 | 71.54994 | -34.14426 | 40237 ft | 429 kts | 230° |
| 2026-04-23 05:04 | 71.51005 | -34.28464 | 40241 ft | 429 kts | 230° |
| 2026-04-23 05:05 | 71.47006 | -34.42441 | 40240 ft | 430 kts | 230° |
| 2026-04-23 05:05 | 71.42996 | -34.56361 | 40246 ft | 430 kts | 230° |
| 2026-04-23 05:06 | 71.38977 | -34.70220 | 40248 ft | 430 kts | 230° |
| 2026-04-23 05:06 | 71.34943 | -34.84037 | 40258 ft | 430 kts | 230° |
| 2026-04-23 05:07 | 71.30903 | -34.97786 | 40253 ft | 430 kts | 230° |
| 2026-04-23 05:07 | 71.26877 | -35.11395 | 40265 ft | 430 kts | 229° |
| 2026-04-23 05:08 | 71.22814 | -35.25038 | 40268 ft | 430 kts | 229° |
| 2026-04-23 05:08 | 71.18740 | -35.38626 | 40272 ft | 430 kts | 229° |
| 2026-04-23 05:09 | 71.14652 | -35.52176 | 40272 ft | 430 kts | 229° |
| 2026-04-23 05:09 | 71.10563 | -35.65637 | 40280 ft | 430 kts | 229° |
| 2026-04-23 05:10 | 71.06462 | -35.79052 | 40282 ft | 430 kts | 229° |
| 2026-04-23 05:10 | 71.02352 | -35.92407 | 40280 ft | 430 kts | 229° |
| 2026-04-23 05:11 | 70.98264 | -36.05784 | 40274 ft | 429 kts | 231° |
| 2026-04-23 05:11 | 70.94478 | -36.19890 | 40280 ft | 428 kts | 233° |
| 2026-04-23 05:12 | 70.90767 | -36.34143 | 40278 ft | 428 kts | 233° |
| 2026-04-23 05:12 | 70.86996 | -36.48254 | 40278 ft | 428 kts | 232° |
| 2026-04-23 05:13 | 70.83213 | -36.62114 | 40282 ft | 428 kts | 232° |
| 2026-04-23 05:14 | 70.77471 | -36.82905 | 40278 ft | 428 kts | 231° |
| 2026-04-23 05:14 | 70.73628 | -36.96715 | 40277 ft | 428 kts | 231° |
| 2026-04-23 05:15 | 70.69784 | -37.10448 | 40276 ft | 428 kts | 231° |
| 2026-04-23 05:15 | 70.65929 | -37.24130 | 40275 ft | 427 kts | 231° |
| 2026-04-23 05:16 | 70.62069 | -37.37743 | 40280 ft | 427 kts | 231° |
| 2026-04-23 05:16 | 70.58220 | -37.51229 | 40279 ft | 427 kts | 231° |
| 2026-04-23 05:17 | 70.54343 | -37.64729 | 40284 ft | 427 kts | 231° |
| 2026-04-23 05:17 | 70.50456 | -37.78174 | 40287 ft | 427 kts | 230° |
| 2026-04-23 05:18 | 70.46550 | -37.91601 | 40285 ft | 427 kts | 230° |
| 2026-04-23 05:18 | 70.42640 | -38.04954 | 40285 ft | 427 kts | 230° |
| 2026-04-23 05:19 | 70.38744 | -38.18178 | 40286 ft | 427 kts | 230° |
| 2026-04-23 05:19 | 70.34811 | -38.31443 | 40287 ft | 427 kts | 230° |
| 2026-04-23 05:20 | 70.30876 | -38.44631 | 40289 ft | 427 kts | 230° |
| 2026-04-23 05:20 | 70.26924 | -38.57792 | 40286 ft | 427 kts | 230° |
| 2026-04-23 05:21 | 70.22968 | -38.70884 | 40284 ft | 426 kts | 230° |
| 2026-04-23 05:21 | 70.19032 | -38.83832 | 40286 ft | 426 kts | 229° |
| 2026-04-23 05:22 | 70.15061 | -38.96810 | 40286 ft | 426 kts | 229° |
| 2026-04-23 05:22 | 70.11077 | -39.09754 | 40288 ft | 426 kts | 229° |
| 2026-04-23 05:23 | 70.07090 | -39.22625 | 40287 ft | 426 kts | 229° |
| 2026-04-23 05:23 | 70.03095 | -39.35445 | 40287 ft | 426 kts | 229° |
| 2026-04-23 05:24 | 69.99090 | -39.48217 | 40286 ft | 426 kts | 229° |
| 2026-04-23 05:24 | 69.95078 | -39.60934 | 40287 ft | 426 kts | 229° |
| 2026-04-23 05:25 | 69.91084 | -39.73517 | 40291 ft | 426 kts | 229° |
| 2026-04-23 05:25 | 69.87055 | -39.86135 | 40287 ft | 426 kts | 229° |
| 2026-04-23 05:26 | 69.83013 | -39.98716 | 40288 ft | 426 kts | 228° |
| 2026-04-23 05:26 | 69.78971 | -40.11221 | 40289 ft | 425 kts | 228° |
| 2026-04-23 05:27 | 69.74914 | -40.23699 | 40287 ft | 425 kts | 228° |
| 2026-04-23 05:27 | 69.70850 | -40.36122 | 40291 ft | 425 kts | 228° |
| 2026-04-23 05:28 | 69.66783 | -40.48480 | 40290 ft | 425 kts | 228° |
| 2026-04-23 05:28 | 69.62707 | -40.60790 | 40291 ft | 425 kts | 228° |
| 2026-04-23 05:29 | 69.58624 | -40.73051 | 40299 ft | 425 kts | 227° |
| 2026-04-23 05:29 | 69.54528 | -40.85279 | 40298 ft | 425 kts | 227° |
| 2026-04-23 05:30 | 69.50457 | -40.97358 | 40302 ft | 425 kts | 227° |
| 2026-04-23 05:30 | 69.46354 | -41.09463 | 40304 ft | 424 kts | 227° |
| 2026-04-23 05:31 | 69.42240 | -41.21528 | 40310 ft | 424 kts | 227° |
| 2026-04-23 05:31 | 69.38121 | -41.33536 | 40310 ft | 424 kts | 227° |
| 2026-04-23 05:32 | 69.33998 | -41.45488 | 40317 ft | 423 kts | 227° |
| 2026-04-23 05:32 | 69.29870 | -41.57385 | 40318 ft | 423 kts | 227° |
| 2026-04-23 05:33 | 69.25736 | -41.69232 | 40323 ft | 423 kts | 227° |
| 2026-04-23 05:33 | 69.21622 | -41.80953 | 40329 ft | 423 kts | 226° |
| 2026-04-23 05:34 | 69.17477 | -41.92694 | 40331 ft | 423 kts | 226° |
| 2026-04-23 05:34 | 69.13325 | -42.04387 | 40331 ft | 422 kts | 226° |
| 2026-04-23 05:35 | 69.09173 | -42.16017 | 40338 ft | 422 kts | 226° |
| 2026-04-23 05:35 | 69.05014 | -42.27596 | 40342 ft | 422 kts | 226° |
| 2026-04-23 05:36 | 69.00844 | -42.39144 | 40344 ft | 422 kts | 226° |
| 2026-04-23 05:36 | 68.96666 | -42.50647 | 40343 ft | 422 kts | 226° |
| 2026-04-23 05:37 | 68.92489 | -42.62083 | 40349 ft | 422 kts | 226° |
| 2026-04-23 05:37 | 68.88299 | -42.73490 | 40352 ft | 421 kts | 226° |
| 2026-04-23 05:38 | 68.84128 | -42.84780 | 40352 ft | 421 kts | 225° |
| 2026-04-23 05:38 | 68.79927 | -42.96091 | 40358 ft | 421 kts | 225° |
| 2026-04-23 05:39 | 68.75717 | -43.07365 | 40360 ft | 421 kts | 225° |
| 2026-04-23 05:39 | 68.71501 | -43.18589 | 40360 ft | 421 kts | 225° |
| 2026-04-23 05:40 | 68.67274 | -43.29780 | 40367 ft | 421 kts | 225° |
| 2026-04-23 05:40 | 68.63076 | -43.40835 | 40363 ft | 421 kts | 225° |
| 2026-04-23 05:41 | 68.58842 | -43.51923 | 40369 ft | 421 kts | 225° |
| 2026-04-23 05:41 | 68.55312 | -43.61122 | 40369 ft | 421 kts | 225° |
| 2026-04-23 05:42 | 68.51059 | -43.72148 | 40375 ft | 421 kts | 225° |
| 2026-04-23 05:42 | 68.46804 | -43.83119 | 40372 ft | 421 kts | 224° |
| 2026-04-23 05:43 | 68.42544 | -43.94045 | 40374 ft | 421 kts | 224° |
| 2026-04-23 05:43 | 68.38270 | -44.04946 | 40379 ft | 421 kts | 224° |
| 2026-04-23 05:44 | 68.33993 | -44.15797 | 40381 ft | 421 kts | 224° |
| 2026-04-23 05:44 | 68.29703 | -44.26620 | 40385 ft | 421 kts | 224° |
| 2026-04-23 05:45 | 68.25408 | -44.37401 | 40388 ft | 421 kts | 224° |
| 2026-04-23 05:45 | 68.21105 | -44.48141 | 40383 ft | 422 kts | 224° |
| 2026-04-23 05:46 | 68.16822 | -44.58774 | 40391 ft | 422 kts | 224° |
| 2026-04-23 05:46 | 68.12478 | -44.69502 | 40396 ft | 422 kts | 224° |
| 2026-04-23 05:47 | 68.08181 | -44.80057 | 40400 ft | 422 kts | 224° |
| 2026-04-23 05:47 | 68.03848 | -44.90646 | 40396 ft | 422 kts | 223° |
| 2026-04-23 05:48 | 67.99506 | -45.01199 | 40403 ft | 422 kts | 224° |
| 2026-04-23 05:48 | 67.94999 | -45.11230 | 40404 ft | 422 kts | 220° |
| 2026-04-23 05:49 | 67.90442 | -45.21130 | 40406 ft | 422 kts | 221° |
| 2026-04-23 05:49 | 67.85900 | -45.31028 | 40409 ft | 422 kts | 221° |
| 2026-04-23 05:50 | 67.81350 | -45.40921 | 40409 ft | 423 kts | 221° |
| 2026-04-23 05:50 | 67.76804 | -45.50762 | 40410 ft | 423 kts | 220° |
| 2026-04-23 05:51 | 67.72246 | -45.60579 | 40413 ft | 423 kts | 220° |
| 2026-04-23 05:51 | 67.67719 | -45.70280 | 40416 ft | 423 kts | 220° |
| 2026-04-23 05:52 | 67.63154 | -45.80013 | 40419 ft | 423 kts | 220° |
| 2026-04-23 05:52 | 67.58580 | -45.89714 | 40421 ft | 422 kts | 220° |
| 2026-04-23 05:53 | 67.54004 | -45.99372 | 40425 ft | 422 kts | 220° |
| 2026-04-23 05:53 | 67.49420 | -46.08995 | 40421 ft | 423 kts | 220° |
| 2026-04-23 05:54 | 67.44824 | -46.18596 | 40422 ft | 423 kts | 220° |
| 2026-04-23 05:54 | 67.40227 | -46.28150 | 40425 ft | 423 kts | 220° |
| 2026-04-23 05:55 | 67.35653 | -46.37608 | 40421 ft | 423 kts | 220° |
| 2026-04-23 05:55 | 67.31042 | -46.47093 | 40419 ft | 423 kts | 220° |
| 2026-04-23 05:56 | 67.26423 | -46.56547 | 40439 ft | 423 kts | 220° |
| 2026-04-23 05:56 | 67.21804 | -46.65955 | 40422 ft | 423 kts | 219° |
| 2026-04-23 05:57 | 67.17172 | -46.75341 | 40423 ft | 423 kts | 219° |
| 2026-04-23 05:57 | 67.12534 | -46.84691 | 40425 ft | 423 kts | 219° |
| 2026-04-23 05:58 | 67.07889 | -46.94009 | 40427 ft | 423 kts | 219° |
| 2026-04-23 05:58 | 67.03244 | -47.03283 | 40427 ft | 423 kts | 219° |
| 2026-04-23 05:59 | 66.98597 | -47.12513 | 40425 ft | 423 kts | 219° |
| 2026-04-23 05:59 | 66.93973 | -47.21652 | 40425 ft | 423 kts | 219° |
| 2026-04-23 06:00 | 66.89305 | -47.30831 | 40426 ft | 423 kts | 219° |
| 2026-04-23 06:00 | 66.84637 | -47.39968 | 40428 ft | 423 kts | 219° |
| 2026-04-23 06:01 | 66.79964 | -47.49065 | 40448 ft | 423 kts | 219° |
| 2026-04-23 06:01 | 66.75295 | -47.58112 | 40120 ft | 421 kts | 219° |
| 2026-04-23 06:01 | 66.72961 | -47.62618 | 39884 ft | 420 kts | 219° |
| 2026-04-23 06:02 | 66.70635 | -47.67097 | 39653 ft | 418 kts | 219° |
| 2026-04-23 06:02 | 66.68328 | -47.71529 | 39425 ft | 416 kts | 219° |
| 2026-04-23 06:02 | 66.66027 | -47.75939 | 39189 ft | 414 kts | 219° |
| 2026-04-23 06:02 | 66.63769 | -47.80256 | 38923 ft | 412 kts | 219° |
| 2026-04-23 06:03 | 66.61482 | -47.84622 | 38661 ft | 411 kts | 218° |
| 2026-04-23 06:03 | 66.59198 | -47.88972 | 38365 ft | 412 kts | 218° |
| 2026-04-23 06:03 | 66.56912 | -47.93313 | 38078 ft | 412 kts | 218° |
| 2026-04-23 06:03 | 66.54614 | -47.97667 | 37810 ft | 413 kts | 218° |
| 2026-04-23 06:04 | 66.52314 | -48.02013 | 37534 ft | 415 kts | 218° |
| 2026-04-23 06:04 | 66.50005 | -48.06366 | 37266 ft | 415 kts | 218° |
| 2026-04-23 06:04 | 66.47690 | -48.10720 | 37000 ft | 416 kts | 218° |
| 2026-04-23 06:04 | 66.45364 | -48.15085 | 36733 ft | 417 kts | 218° |
| 2026-04-23 06:05 | 66.43043 | -48.19428 | 36474 ft | 418 kts | 217° |
| 2026-04-23 06:05 | 66.40707 | -48.23791 | 36214 ft | 419 kts | 217° |
| 2026-04-23 06:05 | 66.38403 | -48.28083 | 35963 ft | 420 kts | 217° |
| 2026-04-23 06:05 | 66.36061 | -48.32435 | 35712 ft | 421 kts | 217° |
| 2026-04-23 06:06 | 66.33704 | -48.36805 | 35450 ft | 422 kts | 217° |
| 2026-04-23 06:06 | 66.31342 | -48.41172 | 35196 ft | 423 kts | 217° |
| 2026-04-23 06:06 | 66.28977 | -48.45536 | 34973 ft | 424 kts | 217° |
| 2026-04-23 06:06 | 66.26602 | -48.49909 | 34727 ft | 425 kts | 217° |
| 2026-04-23 06:07 | 66.24224 | -48.54274 | 34479 ft | 426 kts | 217° |
| 2026-04-23 06:07 | 66.21838 | -48.58644 | 34206 ft | 427 kts | 216° |
| 2026-04-23 06:07 | 66.19447 | -48.63011 | 33939 ft | 428 kts | 216° |
| 2026-04-23 06:07 | 66.17042 | -48.67396 | 33658 ft | 429 kts | 216° |
| 2026-04-23 06:08 | 66.14627 | -48.71786 | 33392 ft | 431 kts | 216° |
| 2026-04-23 06:08 | 66.12211 | -48.76168 | 33121 ft | 432 kts | 216° |
| 2026-04-23 06:08 | 66.09815 | -48.80506 | 32857 ft | 433 kts | 216° |
| 2026-04-23 06:08 | 66.07379 | -48.84903 | 32588 ft | 434 kts | 216° |
| 2026-04-23 06:09 | 66.04933 | -48.89309 | 32339 ft | 436 kts | 216° |
| 2026-04-23 06:09 | 66.02485 | -48.93707 | 32094 ft | 437 kts | 216° |
| 2026-04-23 06:09 | 66.00027 | -48.98112 | 31836 ft | 438 kts | 216° |
| 2026-04-23 06:09 | 65.97558 | -49.02528 | 31576 ft | 439 kts | 216° |
| 2026-04-23 06:10 | 65.95083 | -49.06941 | 31331 ft | 441 kts | 216° |
| 2026-04-23 06:10 | 65.92593 | -49.11372 | 31087 ft | 442 kts | 216° |
| 2026-04-23 06:10 | 65.90099 | -49.15798 | 30836 ft | 443 kts | 216° |
| 2026-04-23 06:10 | 65.87599 | -49.20224 | 30594 ft | 444 kts | 216° |
| 2026-04-23 06:11 | 65.85088 | -49.24660 | 30327 ft | 445 kts | 216° |
| 2026-04-23 06:11 | 65.82573 | -49.29089 | 30043 ft | 445 kts | 216° |
| 2026-04-23 06:11 | 65.80068 | -49.33492 | 29760 ft | 443 kts | 216° |
| 2026-04-23 06:11 | 65.77574 | -49.37864 | 29490 ft | 441 kts | 216° |
| 2026-04-23 06:12 | 65.75087 | -49.42214 | 29219 ft | 439 kts | 216° |
| 2026-04-23 06:12 | 65.72635 | -49.46491 | 28949 ft | 437 kts | 216° |
| 2026-04-23 06:12 | 65.67713 | -49.55047 | 28438 ft | 433 kts | 216° |
| 2026-04-23 06:13 | 65.65265 | -49.59289 | 28169 ft | 431 kts | 216° |
| 2026-04-23 06:13 | 65.62833 | -49.63492 | 27900 ft | 429 kts | 216° |
| 2026-04-23 06:13 | 65.60410 | -49.67670 | 27648 ft | 427 kts | 216° |
| 2026-04-23 06:13 | 65.57997 | -49.71836 | 27392 ft | 425 kts | 218° |
| 2026-04-23 06:14 | 65.55625 | -49.76070 | 27130 ft | 423 kts | 218° |
| 2026-04-23 06:14 | 65.53250 | -49.80277 | 26872 ft | 421 kts | 217° |
| 2026-04-23 06:14 | 65.50880 | -49.84408 | 26639 ft | 419 kts | 217° |
| 2026-04-23 06:14 | 65.48542 | -49.88438 | 26404 ft | 418 kts | 217° |
| 2026-04-23 06:15 | 65.46172 | -49.92491 | 26155 ft | 416 kts | 217° |
| 2026-04-23 06:15 | 65.43816 | -49.96502 | 25917 ft | 414 kts | 217° |
| 2026-04-23 06:15 | 65.41458 | -50.00500 | 25681 ft | 413 kts | 217° |
| 2026-04-23 06:15 | 65.39117 | -50.04457 | 25436 ft | 411 kts | 217° |
| 2026-04-23 06:16 | 65.36784 | -50.08390 | 25199 ft | 409 kts | 217° |
| 2026-04-23 06:16 | 65.34459 | -50.12300 | 24966 ft | 408 kts | 217° |
| 2026-04-23 06:16 | 65.32137 | -50.16195 | 24731 ft | 406 kts | 217° |
| 2026-04-23 06:16 | 65.29828 | -50.20060 | 24505 ft | 404 kts | 217° |
| 2026-04-23 06:17 | 65.27522 | -50.23912 | 24277 ft | 403 kts | 217° |
| 2026-04-23 06:17 | 65.25231 | -50.27730 | 24048 ft | 401 kts | 217° |
| 2026-04-23 06:17 | 65.22945 | -50.31531 | 23772 ft | 400 kts | 217° |
| 2026-04-23 06:17 | 65.20666 | -50.35316 | 23470 ft | 397 kts | 217° |
| 2026-04-23 06:18 | 65.18451 | -50.38985 | 22968 ft | 387 kts | 217° |
| 2026-04-23 06:18 | 65.16264 | -50.42603 | 22354 ft | 380 kts | 217° |
| 2026-04-23 06:18 | 65.14109 | -50.46163 | 21764 ft | 373 kts | 217° |
| 2026-04-23 06:18 | 65.11992 | -50.49656 | 21147 ft | 368 kts | 216° |
| 2026-04-23 06:19 | 65.09906 | -50.53089 | 20559 ft | 363 kts | 216° |
| 2026-04-23 06:19 | 65.07841 | -50.56481 | 19957 ft | 358 kts | 216° |
| 2026-04-23 06:19 | 65.05795 | -50.59835 | 19355 ft | 355 kts | 216° |
| 2026-04-23 06:19 | 65.03774 | -50.63140 | 18762 ft | 352 kts | 216° |
| 2026-04-23 06:20 | 65.01758 | -50.66427 | 18091 ft | 350 kts | 216° |
| 2026-04-23 06:20 | 64.99758 | -50.69680 | 17470 ft | 348 kts | 216° |
| 2026-04-23 06:20 | 64.97774 | -50.72901 | 16884 ft | 344 kts | 216° |
| 2026-04-23 06:20 | 64.95808 | -50.76089 | 16260 ft | 342 kts | 216° |
| 2026-04-23 06:21 | 64.93859 | -50.79242 | 15658 ft | 339 kts | 216° |
| 2026-04-23 06:21 | 64.91922 | -50.82369 | 15054 ft | 335 kts | 216° |
| 2026-04-23 06:21 | 64.90007 | -50.85459 | 14454 ft | 333 kts | 215° |
| 2026-04-23 06:21 | 64.88097 | -50.88532 | 13807 ft | 330 kts | 215° |
| 2026-04-23 06:22 | 64.86207 | -50.91571 | 13200 ft | 327 kts | 215° |
| 2026-04-23 06:22 | 64.84334 | -50.94576 | 12598 ft | 325 kts | 215° |
| 2026-04-23 06:22 | 64.82466 | -50.97569 | 12004 ft | 323 kts | 215° |
| 2026-04-23 06:22 | 64.80649 | -51.00469 | 11651 ft | 313 kts | 215° |
| 2026-04-23 06:23 | 64.78904 | -51.03251 | 11548 ft | 294 kts | 215° |
| 2026-04-23 06:23 | 64.77265 | -51.05872 | 11440 ft | 277 kts | 215° |
| 2026-04-23 06:23 | 64.75718 | -51.08344 | 11340 ft | 261 kts | 215° |
| 2026-04-23 06:23 | 64.74257 | -51.10658 | 11225 ft | 248 kts | 214° |
| 2026-04-23 06:24 | 64.72851 | -51.12872 | 11108 ft | 238 kts | 214° |
| 2026-04-23 06:24 | 64.71499 | -51.14995 | 10998 ft | 231 kts | 214° |
| 2026-04-23 06:24 | 64.70158 | -51.17100 | 10878 ft | 233 kts | 214° |
| 2026-04-23 06:24 | 64.68810 | -51.19221 | 10750 ft | 234 kts | 214° |
| 2026-04-23 06:25 | 64.67464 | -51.21345 | 10562 ft | 234 kts | 214° |
| 2026-04-23 06:25 | 64.66112 | -51.23478 | 10271 ft | 239 kts | 214° |
| 2026-04-23 06:25 | 64.64689 | -51.25726 | 10124 ft | 252 kts | 214° |
| 2026-04-23 06:25 | 64.63237 | -51.28027 | 9874 ft | 251 kts | 214° |
| 2026-04-23 06:26 | 64.61791 | -51.30315 | 9322 ft | 252 kts | 214° |
| 2026-04-23 06:26 | 64.60345 | -51.32589 | 8961 ft | 250 kts | 214° |
| 2026-04-23 06:26 | 64.58902 | -51.34854 | 8640 ft | 250 kts | 214° |
| 2026-04-23 06:26 | 64.57948 | -51.36350 | 8428 ft | 249 kts | 214° |
| 2026-04-23 06:27 | 64.56511 | -51.38600 | 8116 ft | 249 kts | 213° |
| 2026-04-23 06:27 | 64.55077 | -51.40837 | 7879 ft | 247 kts | 213° |
| 2026-04-23 06:27 | 64.53566 | -51.42741 | 7831 ft | 248 kts | 202° |
| 2026-04-23 06:27 | 64.51951 | -51.44085 | 7594 ft | 245 kts | 199° |
| 2026-04-23 06:28 | 64.50379 | -51.45243 | 7326 ft | 225 kts | 196° |
| 2026-04-23 06:28 | 64.48938 | -51.46198 | 7087 ft | 206 kts | 194° |
| 2026-04-23 06:28 | 64.47617 | -51.47054 | 6854 ft | 189 kts | 195° |
| 2026-04-23 06:28 | 64.46397 | -51.47883 | 6538 ft | 179 kts | 195° |
| 2026-04-23 06:29 | 64.45216 | -51.48710 | 6089 ft | 176 kts | 195° |
| 2026-04-23 06:29 | 64.44046 | -51.49552 | 5626 ft | 176 kts | 195° |
| 2026-04-23 06:29 | 64.42879 | -51.50403 | 5175 ft | 175 kts | 196° |
| 2026-04-23 06:29 | 64.41733 | -51.51245 | 4705 ft | 175 kts | 196° |
| 2026-04-23 06:30 | 64.40551 | -51.52125 | 4443 ft | 175 kts | 196° |
| 2026-04-23 06:30 | 64.39456 | -51.52941 | 4441 ft | 159 kts | 196° |
| 2026-04-23 06:30 | 64.38449 | -51.53659 | 4419 ft | 146 kts | 193° |
| 2026-04-23 06:30 | 64.37486 | -51.54284 | 4318 ft | 141 kts | 195° |
| 2026-04-23 06:31 | 64.36559 | -51.54972 | 4113 ft | 138 kts | 196° |
| 2026-04-23 06:31 | 64.35657 | -51.55647 | 3896 ft | 135 kts | 195° |
| 2026-04-23 06:31 | 64.34772 | -51.56300 | 3685 ft | 132 kts | 196° |
| 2026-04-23 06:31 | 64.33908 | -51.56943 | 3493 ft | 129 kts | 196° |
| 2026-04-23 06:32 | 64.33077 | -51.57561 | 3297 ft | 123 kts | 196° |
| 2026-04-23 06:32 | 64.32277 | -51.58157 | 3106 ft | 118 kts | 196° |
| 2026-04-23 06:32 | 64.31503 | -51.58732 | 2937 ft | 116 kts | 196° |
| 2026-04-23 06:32 | 64.30737 | -51.59301 | 2764 ft | 116 kts | 196° |
| 2026-04-23 06:33 | 64.29966 | -51.59874 | 2594 ft | 116 kts | 196° |
| 2026-04-23 06:33 | 64.29192 | -51.60449 | 2407 ft | 117 kts | 196° |
| 2026-04-23 06:33 | 64.28411 | -51.61029 | 2236 ft | 118 kts | 195° |
| 2026-04-23 06:33 | 64.27629 | -51.61609 | 2052 ft | 118 kts | 196° |
| 2026-04-23 06:34 | 64.26854 | -51.62183 | 1877 ft | 119 kts | 196° |
| 2026-04-23 06:34 | 64.26060 | -51.62772 | 1703 ft | 120 kts | 196° |
| 2026-04-23 06:34 | 64.25263 | -51.63362 | 1512 ft | 121 kts | 196° |
| 2026-04-23 06:34 | 64.24463 | -51.63955 | 1315 ft | 121 kts | 195° |
| 2026-04-23 06:35 | 64.23663 | -51.64546 | 1112 ft | 120 kts | 195° |
| 2026-04-23 06:35 | 64.22873 | -51.65131 | 930 ft | 119 kts | 195° |
| 2026-04-23 06:35 | 64.22088 | -51.65711 | 753 ft | 118 kts | 196° |
| 2026-04-23 06:35 | 64.21312 | -51.66283 | 589 ft | 117 kts | 196° |
| 2026-04-23 06:36 | 64.20542 | -51.66853 | 421 ft | 115 kts | 196° |
| 2026-04-23 06:36 | 64.19783 | -51.67412 | 336 ft | 112 kts | 197° |
| 2026-04-23 06:36 | 64.19000 | -51.67989 | 412 ft | 145 kts | 197° |
| 2026-04-23 06:36 | 64.17847 | -51.68867 | 1088 ft | 205 kts | 198° |
| 2026-04-23 06:37 | 64.16173 | -51.70148 | 1317 ft | 297 kts | 197° |
| 2026-04-23 06:37 | 64.14084 | -51.71725 | 1209 ft | 317 kts | 197° |
| 2026-04-23 06:37 | 64.12253 | -51.74051 | 1473 ft | 290 kts | 217° |
| 2026-04-23 06:37 | 64.10714 | -51.76873 | 2243 ft | 272 kts | 217° |
| 2026-04-23 06:38 | 64.09670 | -51.80028 | 2827 ft | 234 kts | 247° |
| 2026-04-23 06:38 | 64.09642 | -51.83550 | 3012 ft | 220 kts | 284° |
| 2026-04-23 06:38 | 64.52326 | -51.43807 | 7706 ft | 245 kts | 203° |
| 2026-04-23 06:38 | 64.50715 | -51.45040 | 7249 ft | 245 kts | 195° |
| 2026-04-23 06:39 | 64.49057 | -51.46090 | 6731 ft | 248 kts | 194° |
| 2026-04-23 06:39 | 64.47396 | -51.47187 | 6232 ft | 248 kts | 195° |
| 2026-04-23 06:39 | 64.45767 | -51.48326 | 5973 ft | 239 kts | 196° |
| 2026-04-23 06:39 | 64.44245 | -51.49422 | 5772 ft | 222 kts | 196° |
| 2026-04-23 06:40 | 64.42817 | -51.50466 | 5515 ft | 203 kts | 196° |
| 2026-04-23 06:40 | 64.41546 | -51.51402 | 5281 ft | 187 kts | 196° |
| 2026-04-23 06:40 | 64.40337 | -51.52296 | 4907 ft | 179 kts | 196° |
| 2026-04-23 06:40 | 64.39155 | -51.53166 | 4464 ft | 178 kts | 196° |
| 2026-04-23 06:41 | 64.37968 | -51.53959 | 4098 ft | 177 kts | 194° |
| 2026-04-23 06:41 | 64.36814 | -51.54777 | 4006 ft | 167 kts | 197° |
| 2026-04-23 06:41 | 64.35752 | -51.55586 | 3894 ft | 157 kts | 196° |
| 2026-04-23 06:41 | 64.34728 | -51.56334 | 3684 ft | 152 kts | 196° |
| 2026-04-23 06:42 | 64.33723 | -51.57079 | 3454 ft | 151 kts | 196° |
| 2026-04-23 06:42 | 64.32734 | -51.57817 | 3221 ft | 148 kts | 196° |
| 2026-04-23 06:42 | 64.31784 | -51.58523 | 2998 ft | 139 kts | 196° |
| 2026-04-23 06:42 | 64.30892 | -51.59187 | 2799 ft | 130 kts | 196° |
| 2026-04-23 06:43 | 64.30052 | -51.59811 | 2607 ft | 124 kts | 196° |
| 2026-04-23 06:43 | 64.29236 | -51.60417 | 2430 ft | 123 kts | 196° |
| 2026-04-23 06:43 | 64.28415 | -51.61026 | 2231 ft | 124 kts | 196° |
| 2026-04-23 06:43 | 64.27590 | -51.61637 | 2045 ft | 125 kts | 196° |
| 2026-04-23 06:44 | 64.26772 | -51.62244 | 1859 ft | 125 kts | 196° |
| 2026-04-23 06:44 | 64.25956 | -51.62849 | 1671 ft | 121 kts | 196° |
| 2026-04-23 06:44 | 64.25158 | -51.63440 | 1486 ft | 121 kts | 196° |
| 2026-04-23 06:44 | 64.24358 | -51.64032 | 1296 ft | 121 kts | 195° |
| 2026-04-23 06:45 | 64.23559 | -51.64624 | 1090 ft | 120 kts | 196° |
| 2026-04-23 06:45 | 64.22765 | -51.65211 | 903 ft | 119 kts | 195° |
| 2026-04-23 06:45 | 64.21983 | -51.65788 | 734 ft | 118 kts | 196° |
| 2026-04-23 06:45 | 64.21205 | -51.66362 | 568 ft | 117 kts | 196° |
| 2026-04-23 06:46 | 64.20436 | -51.66931 | 405 ft | 115 kts | 197° |
| 2026-04-23 06:46 | 64.19672 | -51.67485 | 270 ft | 114 kts | 198° |
| 2026-04-23 06:46 | 64.19222 | -51.67832 | 270 ft | 12 kts | 198° |
| 2026-04-23 06:46 | 64.19218 | -51.67835 | 271 ft | 0 kts | 198° |
| 2026-04-23 06:47 | 64.52320 | -51.43813 | 7700 ft | 243 kts | 200° |
| 2026-04-23 06:47 | 64.50769 | -51.44953 | 7114 ft | 230 kts | 195° |
| 2026-04-23 06:48 | 64.49195 | -51.45955 | 6010 ft | 239 kts | 194° |
| 2026-04-23 06:48 | 64.47579 | -51.47030 | 5091 ft | 241 kts | 195° |
| 2026-04-23 06:48 | 64.46009 | -51.48134 | 4511 ft | 229 kts | 196° |
| 2026-04-23 06:48 | 64.44569 | -51.49175 | 4401 ft | 202 kts | 196° |
| 2026-04-23 06:49 | 64.43318 | -51.50091 | 4394 ft | 176 kts | 196° |
| 2026-04-23 06:49 | 64.42207 | -51.50907 | 4400 ft | 167 kts | 196° |
| 2026-04-23 06:49 | 64.41107 | -51.51715 | 4395 ft | 166 kts | 196° |
| 2026-04-23 06:49 | 64.39997 | -51.52447 | 4385 ft | 166 kts | 194° |
| 2026-04-23 06:50 | 64.38891 | -51.53229 | 4384 ft | 166 kts | 196° |
| 2026-04-23 06:50 | 64.37789 | -51.54065 | 4344 ft | 167 kts | 196° |
| 2026-04-23 06:50 | 64.36701 | -51.54865 | 4192 ft | 160 kts | 195° |
| 2026-04-23 06:50 | 64.35648 | -51.55641 | 3941 ft | 158 kts | 196° |
| 2026-04-23 06:51 | 64.34614 | -51.56416 | 3671 ft | 151 kts | 196° |
| 2026-04-23 06:51 | 64.33656 | -51.57130 | 3434 ft | 138 kts | 196° |
| 2026-04-23 06:51 | 64.32777 | -51.57784 | 3225 ft | 127 kts | 196° |
| 2026-04-23 06:51 | 64.31978 | -51.58379 | 3040 ft | 117 kts | 196° |
| 2026-04-23 06:52 | 64.31204 | -51.58954 | 2882 ft | 115 kts | 196° |
| 2026-04-23 06:52 | 64.30448 | -51.59515 | 2698 ft | 116 kts | 196° |
| 2026-04-23 06:52 | 64.29676 | -51.60090 | 2522 ft | 117 kts | 196° |
| 2026-04-23 06:52 | 64.28898 | -51.60667 | 2338 ft | 118 kts | 196° |
| 2026-04-23 06:53 | 64.28118 | -51.61246 | 2161 ft | 118 kts | 196° |
| 2026-04-23 06:53 | 64.27332 | -51.61828 | 1982 ft | 119 kts | 196° |
| 2026-04-23 06:53 | 64.26542 | -51.62415 | 1801 ft | 120 kts | 196° |
| 2026-04-23 06:53 | 64.25746 | -51.63005 | 1617 ft | 121 kts | 196° |
| 2026-04-23 06:54 | 64.24947 | -51.63598 | 1432 ft | 121 kts | 195° |
| 2026-04-23 06:54 | 64.24143 | -51.64191 | 1233 ft | 121 kts | 195° |
| 2026-04-23 06:54 | 64.23345 | -51.64782 | 1035 ft | 120 kts | 196° |
| 2026-04-23 06:54 | 64.22553 | -51.65367 | 843 ft | 119 kts | 196° |
| 2026-04-23 06:55 | 64.21769 | -51.65947 | 689 ft | 118 kts | 195° |
| 2026-04-23 06:55 | 64.21002 | -51.66512 | 525 ft | 117 kts | 195° |
| 2026-04-23 06:55 | 64.20231 | -51.67082 | 364 ft | 116 kts | 195° |
| 2026-04-23 06:55 | 64.19479 | -51.67637 | 296 ft | 108 kts | 199° |
| 2026-04-23 06:56 | 64.18843 | -51.68105 | 268 ft | 69 kts | 196° |
| 2026-04-23 06:56 | 64.18622 | -51.68266 | 265 ft | 19 kts | 199° |
| 2026-04-23 06:56 | 64.18476 | -51.68386 | 266 ft | 23 kts | 198° |
| 2026-04-23 06:56 | 64.18315 | -51.68504 | 261 ft | 26 kts | 198° |
| 2026-04-23 06:57 | 64.18223 | -51.68508 | 260 ft | 12 kts | 165° |
| 2026-04-23 06:57 | 64.18154 | -51.68573 | 258 ft | 10 kts | 252° |
| 2026-04-23 06:57 | 64.18167 | -51.68618 | 258 ft | 1 kts | 346° |
| 2026-04-23 06:57 | 64.18183 | -51.68605 | 259 ft | 0 kts | 21° |
| 2026-04-23 06:58 | 64.18211 | -51.68578 | 259 ft | 6 kts | 22° |
| 2026-04-23 06:58 | 64.18267 | -51.68533 | 260 ft | 11 kts | 18° |
| 2026-04-23 06:58 | 64.18342 | -51.68476 | 262 ft | 11 kts | 17° |
| 2026-04-23 06:59 | 64.18413 | -51.68425 | 264 ft | 11 kts | 17° |
| 2026-04-23 06:59 | 64.18487 | -51.68372 | 266 ft | 11 kts | 17° |
| 2026-04-23 06:59 | 64.18564 | -51.68317 | 266 ft | 13 kts | 17° |
| 2026-04-23 06:59 | 64.18641 | -51.68210 | 266 ft | 13 kts | 63° |
| 2026-04-23 07:00 | 64.18625 | -51.67978 | 260 ft | 16 kts | 96° |
| 2026-04-23 07:00 | 64.18690 | -51.67847 | 260 ft | 13 kts | 19° |
| 2026-04-23 07:00 | 64.18782 | -51.67779 | 260 ft | 14 kts | 16° |
| 2026-04-23 07:00 | 64.18861 | -51.67691 | 260 ft | 8 kts | 62° |
| 2026-04-23 07:01 | 64.18858 | -51.67658 | 260 ft | 1 kts | 119° |
| 2026-04-23 07:01 | 64.18807 | -51.67602 | 260 ft | 4 kts | 181° |
| 2026-04-23 07:01 | 64.18796 | -51.67630 | 260 ft | 13 kts | 231° |
| 2026-04-23 07:01 | 64.18724 | -51.67847 | 260 ft | 14 kts | 197° |
| 2026-04-23 07:02 | 64.18631 | -51.67883 | 260 ft | 12 kts | 164° |
| 2026-04-23 07:02 | 64.18568 | -51.67775 | 261 ft | 12 kts | 151° |
| 2026-04-23 07:02 | 64.18559 | -51.67763 | 260 ft | 1 kts | 150° |
| 2026-04-23 07:02 | 64.18551 | -51.67752 | 260 ft | 0 kts | 149° |
| 2026-04-23 07:03 | 64.18558 | -51.67758 | 260 ft | 0 kts | 153° |